<?xml version="1.0" encoding="UTF-8" standalone="no" ?><gpx xmlns="http://www.topografix.com/GPX/1/1" xmlns:gpxx="http://www.garmin.com/xmlschemas/GpxExtensions/v3" xmlns:wptx1="http://www.garmin.com/xmlschemas/WaypointExtension/v1" xmlns:gpxtpx="http://www.garmin.com/xmlschemas/TrackPointExtension/v1" creator="GuideVTT.com" version="1.1" xmlns:xsi="http://www.w3.org/2001/XMLSchema-instance" xsi:schemaLocation="http://www.topografix.com/GPX/1/1 http://www.topografix.com/GPX/1/1/gpx.xsd http://www.garmin.com/xmlschemas/GpxExtensions/v3 http://www8.garmin.com/xmlschemas/GpxExtensionsv3.xsd http://www.garmin.com/xmlschemas/WaypointExtension/v1 http://www8.garmin.com/xmlschemas/WaypointExtensionv1.xsd http://www.garmin.com/xmlschemas/TrackPointExtension/v1 http://www.garmin.com/xmlschemas/TrackPointExtensionv1.xsd">
<metadata><link href="http://www.garmin.com"><text>Garmin International</text></link><time>2013-06-22T15:13:50Z</time></metadata>
<trk><name>bugnicourt.gpx</name><extensions><gpxx:TrackExtension><gpxx:DisplayColor>Cyan</gpxx:DisplayColor></gpxx:TrackExtension></extensions><trkseg>
<trkpt lat="50.29267540" lon="3.15783070"><ele>47.241821</ele><time>2009-10-04T06:54:23Z</time></trkpt>
<trkpt lat="50.29269650" lon="3.15779970"><ele>50.606567</ele><time>2009-10-04T06:54:37Z</time></trkpt>
<trkpt lat="50.29269380" lon="3.15780740"><ele>53.490479</ele><time>2009-10-04T06:54:43Z</time></trkpt>
<trkpt lat="50.29269320" lon="3.15780660"><ele>53.971191</ele><time>2009-10-04T06:54:44Z</time></trkpt>
<trkpt lat="50.29267610" lon="3.15781850"><ele>56.855103</ele><time>2009-10-04T06:54:53Z</time></trkpt>
<trkpt lat="50.29267410" lon="3.15781640"><ele>60.219727</ele><time>2009-10-04T06:55:07Z</time></trkpt>
<trkpt lat="50.29267430" lon="3.15781670"><ele>63.103638</ele><time>2009-10-04T06:55:28Z</time></trkpt>
<trkpt lat="50.29265840" lon="3.15788330"><ele>66.468262</ele><time>2009-10-04T06:56:36Z</time></trkpt>
<trkpt lat="50.29266340" lon="3.15788810"><ele>65.50708</ele><time>2009-10-04T06:57:18Z</time></trkpt>
<trkpt lat="50.29229880" lon="3.15761480"><ele>63.103638</ele><time>2009-10-04T06:57:31Z</time></trkpt>
<trkpt lat="50.29199480" lon="3.15732010"><ele>61.661743</ele><time>2009-10-04T06:57:38Z</time></trkpt>
<trkpt lat="50.29190690" lon="3.15720600"><ele>61.661743</ele><time>2009-10-04T06:57:40Z</time></trkpt>
<trkpt lat="50.29182140" lon="3.15698170"><ele>63.103638</ele><time>2009-10-04T06:57:44Z</time></trkpt>
<trkpt lat="50.29165510" lon="3.15698150"><ele>62.142334</ele><time>2009-10-04T06:57:49Z</time></trkpt>
<trkpt lat="50.29139310" lon="3.15752610"><ele>59.739136</ele><time>2009-10-04T06:57:56Z</time></trkpt>
<trkpt lat="50.29118940" lon="3.15775900"><ele>58.297119</ele><time>2009-10-04T06:58:00Z</time></trkpt>
<trkpt lat="50.29098650" lon="3.15810400"><ele>59.739136</ele><time>2009-10-04T06:58:06Z</time></trkpt>
<trkpt lat="50.29094430" lon="3.15818860"><ele>59.739136</ele><time>2009-10-04T06:58:17Z</time></trkpt>
<trkpt lat="50.29094430" lon="3.15818860"><ele>60.700317</ele><time>2009-10-04T06:58:23Z</time></trkpt>
<trkpt lat="50.29089140" lon="3.15829420"><ele>60.700317</ele><time>2009-10-04T06:58:25Z</time></trkpt>
<trkpt lat="50.29089140" lon="3.15829420"><ele>65.026367</ele><time>2009-10-04T06:58:37Z</time></trkpt>
<trkpt lat="50.29089140" lon="3.15829420"><ele>59.739136</ele><time>2009-10-04T06:58:38Z</time></trkpt>
<trkpt lat="50.29089140" lon="3.15829420"><ele>60.700317</ele><time>2009-10-04T06:58:58Z</time></trkpt>
<trkpt lat="50.29089140" lon="3.15829420"><ele>60.700317</ele><time>2009-10-04T06:59:36Z</time></trkpt>
<trkpt lat="50.29089140" lon="3.15829420"><ele>61.18103</ele><time>2009-10-04T06:59:58Z</time></trkpt>
<trkpt lat="50.29089140" lon="3.15829420"><ele>62.142334</ele><time>2009-10-04T07:01:42Z</time></trkpt>
<trkpt lat="50.29089140" lon="3.15829420"><ele>63.103638</ele><time>2009-10-04T07:02:28Z</time></trkpt>
<trkpt lat="50.29089140" lon="3.15829420"><ele>61.661743</ele><time>2009-10-04T07:02:38Z</time></trkpt>
<trkpt lat="50.29089140" lon="3.15829420"><ele>65.026367</ele><time>2009-10-04T07:02:42Z</time></trkpt>
<trkpt lat="50.29089140" lon="3.15829420"><ele>62.622925</ele><time>2009-10-04T07:02:43Z</time></trkpt>
<trkpt lat="50.29089140" lon="3.15829420"><ele>59.258423</ele><time>2009-10-04T07:02:52Z</time></trkpt>
<trkpt lat="50.29089140" lon="3.15829420"><ele>62.622925</ele><time>2009-10-04T07:02:54Z</time></trkpt>
<trkpt lat="50.29089140" lon="3.15829420"><ele>64.065063</ele><time>2009-10-04T07:02:57Z</time></trkpt>
<trkpt lat="50.29089140" lon="3.15829420"><ele>60.700317</ele><time>2009-10-04T07:03:03Z</time></trkpt>
<trkpt lat="50.29089140" lon="3.15829420"><ele>55.893799</ele><time>2009-10-04T07:03:05Z</time></trkpt>
<trkpt lat="50.29089140" lon="3.15829420"><ele>63.584351</ele><time>2009-10-04T07:03:06Z</time></trkpt>
<trkpt lat="50.29089140" lon="3.15829420"><ele>62.622925</ele><time>2009-10-04T07:03:31Z</time></trkpt>
<trkpt lat="50.29089140" lon="3.15829420"><ele>62.142334</ele><time>2009-10-04T07:04:27Z</time></trkpt>
<trkpt lat="50.29089140" lon="3.15829420"><ele>61.18103</ele><time>2009-10-04T07:04:38Z</time></trkpt>
<trkpt lat="50.29080300" lon="3.15841960"><ele>60.219727</ele><time>2009-10-04T07:04:45Z</time></trkpt>
<trkpt lat="50.29050630" lon="3.15859780"><ele>59.258423</ele><time>2009-10-04T07:04:53Z</time></trkpt>
<trkpt lat="50.29035050" lon="3.15876850"><ele>59.739136</ele><time>2009-10-04T07:04:57Z</time></trkpt>
<trkpt lat="50.28991030" lon="3.15981140"><ele>60.219727</ele><time>2009-10-04T07:05:15Z</time></trkpt>
<trkpt lat="50.28965950" lon="3.16045760"><ele>62.142334</ele><time>2009-10-04T07:05:27Z</time></trkpt>
<trkpt lat="50.28955150" lon="3.16070050"><ele>62.622925</ele><time>2009-10-04T07:05:30Z</time></trkpt>
<trkpt lat="50.28922500" lon="3.16153770"><ele>65.026367</ele><time>2009-10-04T07:05:44Z</time></trkpt>
<trkpt lat="50.28904970" lon="3.16177140"><ele>65.026367</ele><time>2009-10-04T07:05:50Z</time></trkpt>
<trkpt lat="50.28895160" lon="3.16166080"><ele>65.026367</ele><time>2009-10-04T07:05:54Z</time></trkpt>
<trkpt lat="50.28866470" lon="3.16123500"><ele>62.622925</ele><time>2009-10-04T07:06:02Z</time></trkpt>
<trkpt lat="50.28829110" lon="3.16069780"><ele>58.77771</ele><time>2009-10-04T07:06:10Z</time></trkpt>
<trkpt lat="50.28817290" lon="3.16054730"><ele>57.335815</ele><time>2009-10-04T07:06:12Z</time></trkpt>
<trkpt lat="50.28804480" lon="3.16038440"><ele>55.413086</ele><time>2009-10-04T07:06:14Z</time></trkpt>
<trkpt lat="50.28782990" lon="3.16013000"><ele>52.529175</ele><time>2009-10-04T07:06:17Z</time></trkpt>
<trkpt lat="50.28740190" lon="3.15968330"><ele>50.125977</ele><time>2009-10-04T07:06:23Z</time></trkpt>
<trkpt lat="50.28694560" lon="3.15921770"><ele>50.125977</ele><time>2009-10-04T07:06:30Z</time></trkpt>
<trkpt lat="50.28680560" lon="3.15904140"><ele>46.76123</ele><time>2009-10-04T07:06:34Z</time></trkpt>
<trkpt lat="50.28668640" lon="3.15721030"><ele>44.838623</ele><time>2009-10-04T07:06:48Z</time></trkpt>
<trkpt lat="50.28670140" lon="3.15611130"><ele>45.799927</ele><time>2009-10-04T07:06:58Z</time></trkpt>
<trkpt lat="50.28687060" lon="3.15463760"><ele>45.319214</ele><time>2009-10-04T07:07:12Z</time></trkpt>
<trkpt lat="50.28689430" lon="3.15444760"><ele>45.319214</ele><time>2009-10-04T07:07:14Z</time></trkpt>
<trkpt lat="50.28693440" lon="3.15412760"><ele>45.319214</ele><time>2009-10-04T07:07:18Z</time></trkpt>
<trkpt lat="50.28690800" lon="3.15357360"><ele>44.838623</ele><time>2009-10-04T07:07:23Z</time></trkpt>
<trkpt lat="50.28709310" lon="3.15317380"><ele>43.396606</ele><time>2009-10-04T07:07:28Z</time></trkpt>
<trkpt lat="50.28728260" lon="3.15238730"><ele>43.396606</ele><time>2009-10-04T07:07:36Z</time></trkpt>
<trkpt lat="50.28743660" lon="3.15196150"><ele>46.28064</ele><time>2009-10-04T07:07:44Z</time></trkpt>
<trkpt lat="50.28740640" lon="3.15193890"><ele>45.799927</ele><time>2009-10-04T07:07:47Z</time></trkpt>
<trkpt lat="50.28711340" lon="3.15201340"><ele>43.396606</ele><time>2009-10-04T07:07:50Z</time></trkpt>
<trkpt lat="50.28684230" lon="3.15189340"><ele>43.396606</ele><time>2009-10-04T07:07:54Z</time></trkpt>
<trkpt lat="50.28619090" lon="3.15147360"><ele>40.032104</ele><time>2009-10-04T07:08:03Z</time></trkpt>
<trkpt lat="50.28496060" lon="3.15042540"><ele>38.109375</ele><time>2009-10-04T07:08:21Z</time></trkpt>
<trkpt lat="50.28391430" lon="3.14947320"><ele>37.148071</ele><time>2009-10-04T07:08:37Z</time></trkpt>
<trkpt lat="50.28277710" lon="3.14861820"><ele>36.186768</ele><time>2009-10-04T07:08:54Z</time></trkpt>
<trkpt lat="50.28172490" lon="3.14785520"><ele>38.590088</ele><time>2009-10-04T07:09:11Z</time></trkpt>
<trkpt lat="50.28077290" lon="3.14722250"><ele>39.070679</ele><time>2009-10-04T07:09:26Z</time></trkpt>
<trkpt lat="50.27980200" lon="3.14669540"><ele>38.109375</ele><time>2009-10-04T07:09:41Z</time></trkpt>
<trkpt lat="50.27888600" lon="3.14621760"><ele>36.186768</ele><time>2009-10-04T07:09:55Z</time></trkpt>
<trkpt lat="50.27781700" lon="3.14573980"><ele>36.186768</ele><time>2009-10-04T07:10:11Z</time></trkpt>
<trkpt lat="50.27661790" lon="3.14520390"><ele>37.148071</ele><time>2009-10-04T07:10:29Z</time></trkpt>
<trkpt lat="50.27564290" lon="3.14476830"><ele>39.55127</ele><time>2009-10-04T07:10:44Z</time></trkpt>
<trkpt lat="50.27459010" lon="3.14417190"><ele>39.55127</ele><time>2009-10-04T07:11:00Z</time></trkpt>
<trkpt lat="50.27339100" lon="3.14335850"><ele>37.628662</ele><time>2009-10-04T07:11:18Z</time></trkpt>
<trkpt lat="50.27237150" lon="3.14234950"><ele>35.225464</ele><time>2009-10-04T07:11:34Z</time></trkpt>
<trkpt lat="50.27207900" lon="3.14203550"><ele>33.783447</ele><time>2009-10-04T07:11:39Z</time></trkpt>
<trkpt lat="50.27196630" lon="3.14151220"><ele>34.744873</ele><time>2009-10-04T07:11:45Z</time></trkpt>
<trkpt lat="50.27200230" lon="3.14142700"><ele>34.744873</ele><time>2009-10-04T07:11:46Z</time></trkpt>
<trkpt lat="50.27255050" lon="3.14012490"><ele>36.186768</ele><time>2009-10-04T07:12:00Z</time></trkpt>
<trkpt lat="50.27305570" lon="3.13890890"><ele>33.302856</ele><time>2009-10-04T07:12:12Z</time></trkpt>
<trkpt lat="50.27366990" lon="3.13741520"><ele>35.225464</ele><time>2009-10-04T07:12:27Z</time></trkpt>
<trkpt lat="50.27421140" lon="3.13607520"><ele>34.26416</ele><time>2009-10-04T07:12:43Z</time></trkpt>
<trkpt lat="50.27439210" lon="3.13568510"><ele>34.744873</ele><time>2009-10-04T07:12:50Z</time></trkpt>
<trkpt lat="50.27424480" lon="3.13540000"><ele>32.822266</ele><time>2009-10-04T07:12:55Z</time></trkpt>
<trkpt lat="50.27419060" lon="3.13534360"><ele>31.860718</ele><time>2009-10-04T07:12:56Z</time></trkpt>
<trkpt lat="50.27404860" lon="3.13519560"><ele>33.302856</ele><time>2009-10-04T07:12:59Z</time></trkpt>
<trkpt lat="50.27406660" lon="3.13487610"><ele>32.341553</ele><time>2009-10-04T07:13:05Z</time></trkpt>
<trkpt lat="50.27413870" lon="3.13477110"><ele>32.341553</ele><time>2009-10-04T07:13:07Z</time></trkpt>
<trkpt lat="50.27444460" lon="3.13434140"><ele>31.380127</ele><time>2009-10-04T07:13:14Z</time></trkpt>
<trkpt lat="50.27506960" lon="3.13366160"><ele>30.418823</ele><time>2009-10-04T07:13:25Z</time></trkpt>
<trkpt lat="50.27522410" lon="3.13349350"><ele>31.860718</ele><time>2009-10-04T07:13:28Z</time></trkpt>
<trkpt lat="50.27541620" lon="3.13328450"><ele>30.899536</ele><time>2009-10-04T07:13:32Z</time></trkpt>
<trkpt lat="50.27564050" lon="3.13303220"><ele>30.899536</ele><time>2009-10-04T07:13:36Z</time></trkpt>
<trkpt lat="50.27576380" lon="3.13269960"><ele>29.45752</ele><time>2009-10-04T07:13:40Z</time></trkpt>
<trkpt lat="50.27592660" lon="3.13173650"><ele>28.496216</ele><time>2009-10-04T07:13:49Z</time></trkpt>
<trkpt lat="50.27586840" lon="3.13145710"><ele>28.976929</ele><time>2009-10-04T07:13:53Z</time></trkpt>
<trkpt lat="50.27508500" lon="3.13036880"><ele>28.976929</ele><time>2009-10-04T07:14:10Z</time></trkpt>
<trkpt lat="50.27449020" lon="3.12954550"><ele>29.45752</ele><time>2009-10-04T07:14:23Z</time></trkpt>
<trkpt lat="50.27370650" lon="3.12849030"><ele>30.899536</ele><time>2009-10-04T07:14:41Z</time></trkpt>
<trkpt lat="50.27351240" lon="3.12822910"><ele>30.418823</ele><time>2009-10-04T07:14:46Z</time></trkpt>
<trkpt lat="50.27340140" lon="3.12764680"><ele>29.93811</ele><time>2009-10-04T07:14:54Z</time></trkpt>
<trkpt lat="50.27358090" lon="3.12641020"><ele>30.899536</ele><time>2009-10-04T07:15:09Z</time></trkpt>
<trkpt lat="50.27372140" lon="3.12544240"><ele>30.899536</ele><time>2009-10-04T07:15:20Z</time></trkpt>
<trkpt lat="50.27388530" lon="3.12410190"><ele>30.418823</ele><time>2009-10-04T07:15:35Z</time></trkpt>
<trkpt lat="50.27403760" lon="3.12279580"><ele>30.418823</ele><time>2009-10-04T07:15:49Z</time></trkpt>
<trkpt lat="50.27404760" lon="3.12271040"><ele>30.418823</ele><time>2009-10-04T07:15:50Z</time></trkpt>
<trkpt lat="50.27412080" lon="3.12243340"><ele>30.899536</ele><time>2009-10-04T07:15:54Z</time></trkpt>
<trkpt lat="50.27437870" lon="3.12237440"><ele>30.899536</ele><time>2009-10-04T07:16:00Z</time></trkpt>
<trkpt lat="50.27462610" lon="3.12246330"><ele>30.899536</ele><time>2009-10-04T07:16:04Z</time></trkpt>
<trkpt lat="50.27481930" lon="3.12212210"><ele>31.860718</ele><time>2009-10-04T07:16:11Z</time></trkpt>
<trkpt lat="50.27495210" lon="3.12132980"><ele>32.822266</ele><time>2009-10-04T07:16:22Z</time></trkpt>
<trkpt lat="50.27528630" lon="3.12055640"><ele>31.860718</ele><time>2009-10-04T07:16:33Z</time></trkpt>
<trkpt lat="50.27579820" lon="3.11949860"><ele>32.341553</ele><time>2009-10-04T07:16:47Z</time></trkpt>
<trkpt lat="50.27597920" lon="3.11917250"><ele>33.783447</ele><time>2009-10-04T07:16:57Z</time></trkpt>
<trkpt lat="50.27597920" lon="3.11917250"><ele>33.783447</ele><time>2009-10-04T07:16:58Z</time></trkpt>
<trkpt lat="50.27599100" lon="3.11915160"><ele>33.783447</ele><time>2009-10-04T07:17:05Z</time></trkpt>
<trkpt lat="50.27603390" lon="3.11913010"><ele>30.418823</ele><time>2009-10-04T07:17:09Z</time></trkpt>
<trkpt lat="50.27613280" lon="3.11914200"><ele>29.93811</ele><time>2009-10-04T07:17:12Z</time></trkpt>
<trkpt lat="50.27687220" lon="3.11923220"><ele>28.496216</ele><time>2009-10-04T07:17:25Z</time></trkpt>
<trkpt lat="50.27775910" lon="3.11934040"><ele>28.015503</ele><time>2009-10-04T07:17:38Z</time></trkpt>
<trkpt lat="50.27810660" lon="3.11938270"><ele>29.45752</ele><time>2009-10-04T07:17:43Z</time></trkpt>
<trkpt lat="50.27877460" lon="3.11946420"><ele>30.418823</ele><time>2009-10-04T07:17:54Z</time></trkpt>
<trkpt lat="50.27884420" lon="3.11947270"><ele>30.899536</ele><time>2009-10-04T07:18:03Z</time></trkpt>
<trkpt lat="50.27884420" lon="3.11947270"><ele>30.418823</ele><time>2009-10-04T07:19:16Z</time></trkpt>
<trkpt lat="50.27884420" lon="3.11947270"><ele>27.054321</ele><time>2009-10-04T07:19:22Z</time></trkpt>
<trkpt lat="50.27884420" lon="3.11947270"><ele>31.860718</ele><time>2009-10-04T07:19:23Z</time></trkpt>
<trkpt lat="50.27884420" lon="3.11947270"><ele>28.015503</ele><time>2009-10-04T07:19:24Z</time></trkpt>
<trkpt lat="50.27884420" lon="3.11947270"><ele>31.860718</ele><time>2009-10-04T07:19:29Z</time></trkpt>
<trkpt lat="50.27884420" lon="3.11947270"><ele>27.054321</ele><time>2009-10-04T07:19:30Z</time></trkpt>
<trkpt lat="50.27884420" lon="3.11947270"><ele>40.512817</ele><time>2009-10-04T07:19:32Z</time></trkpt>
<trkpt lat="50.27884420" lon="3.11947270"><ele>32.341553</ele><time>2009-10-04T07:19:33Z</time></trkpt>
<trkpt lat="50.27884420" lon="3.11947270"><ele>28.976929</ele><time>2009-10-04T07:19:39Z</time></trkpt>
<trkpt lat="50.27884420" lon="3.11947270"><ele>30.418823</ele><time>2009-10-04T07:21:04Z</time></trkpt>
<trkpt lat="50.27884420" lon="3.11947270"><ele>30.418823</ele><time>2009-10-04T07:23:54Z</time></trkpt>
<trkpt lat="50.27884420" lon="3.11947270"><ele>27.054321</ele><time>2009-10-04T07:25:04Z</time></trkpt>
<trkpt lat="50.27884420" lon="3.11947270"><ele>31.380127</ele><time>2009-10-04T07:25:06Z</time></trkpt>
<trkpt lat="50.27884420" lon="3.11947270"><ele>31.380127</ele><time>2009-10-04T07:25:07Z</time></trkpt>
<trkpt lat="50.27884420" lon="3.11947270"><ele>34.26416</ele><time>2009-10-04T07:26:01Z</time></trkpt>
<trkpt lat="50.27884420" lon="3.11947270"><ele>30.418823</ele><time>2009-10-04T07:26:02Z</time></trkpt>
<trkpt lat="50.27884420" lon="3.11947270"><ele>29.93811</ele><time>2009-10-04T07:26:03Z</time></trkpt>
<trkpt lat="50.27884420" lon="3.11947270"><ele>31.380127</ele><time>2009-10-04T07:26:11Z</time></trkpt>
<trkpt lat="50.27884420" lon="3.11947270"><ele>35.225464</ele><time>2009-10-04T07:26:13Z</time></trkpt>
<trkpt lat="50.27884420" lon="3.11947270"><ele>31.860718</ele><time>2009-10-04T07:26:14Z</time></trkpt>
<trkpt lat="50.27884420" lon="3.11947270"><ele>30.899536</ele><time>2009-10-04T07:26:20Z</time></trkpt>
<trkpt lat="50.27884420" lon="3.11947270"><ele>28.015503</ele><time>2009-10-04T07:27:28Z</time></trkpt>
<trkpt lat="50.27884420" lon="3.11947270"><ele>31.380127</ele><time>2009-10-04T07:27:29Z</time></trkpt>
<trkpt lat="50.27884420" lon="3.11947270"><ele>28.496216</ele><time>2009-10-04T07:27:31Z</time></trkpt>
<trkpt lat="50.27884420" lon="3.11947270"><ele>28.496216</ele><time>2009-10-04T07:27:32Z</time></trkpt>
<trkpt lat="50.27884420" lon="3.11947270"><ele>24.651001</ele><time>2009-10-04T07:27:36Z</time></trkpt>
<trkpt lat="50.27884420" lon="3.11947270"><ele>20.805664</ele><time>2009-10-04T07:27:37Z</time></trkpt>
<trkpt lat="50.27884420" lon="3.11947270"><ele>22.728271</ele><time>2009-10-04T07:27:38Z</time></trkpt>
<trkpt lat="50.27884420" lon="3.11947270"><ele>30.418823</ele><time>2009-10-04T07:27:39Z</time></trkpt>
<trkpt lat="50.27884420" lon="3.11947270"><ele>31.380127</ele><time>2009-10-04T07:27:41Z</time></trkpt>
<trkpt lat="50.27884420" lon="3.11947270"><ele>31.380127</ele><time>2009-10-04T07:27:45Z</time></trkpt>
<trkpt lat="50.27884420" lon="3.11947270"><ele>34.744873</ele><time>2009-10-04T07:27:53Z</time></trkpt>
<trkpt lat="50.27884420" lon="3.11947270"><ele>33.302856</ele><time>2009-10-04T07:27:54Z</time></trkpt>
<trkpt lat="50.27884420" lon="3.11947270"><ele>32.822266</ele><time>2009-10-04T07:27:56Z</time></trkpt>
<trkpt lat="50.27902530" lon="3.11919530"><ele>30.899536</ele><time>2009-10-04T07:28:45Z</time></trkpt>
<trkpt lat="50.27983660" lon="3.11927310"><ele>29.45752</ele><time>2009-10-04T07:28:58Z</time></trkpt>
<trkpt lat="50.28073460" lon="3.11938020"><ele>28.976929</ele><time>2009-10-04T07:29:10Z</time></trkpt>
<trkpt lat="50.28111430" lon="3.11942980"><ele>28.976929</ele><time>2009-10-04T07:29:15Z</time></trkpt>
<trkpt lat="50.28232900" lon="3.11950010"><ele>30.418823</ele><time>2009-10-04T07:29:31Z</time></trkpt>
<trkpt lat="50.28355830" lon="3.11956600"><ele>30.418823</ele><time>2009-10-04T07:29:48Z</time></trkpt>
<trkpt lat="50.28400850" lon="3.11962940"><ele>33.783447</ele><time>2009-10-04T07:29:55Z</time></trkpt>
<trkpt lat="50.28409070" lon="3.11964090"><ele>34.744873</ele><time>2009-10-04T07:29:57Z</time></trkpt>
<trkpt lat="50.28400530" lon="3.11962890"><ele>33.302856</ele><time>2009-10-04T07:30:04Z</time></trkpt>
<trkpt lat="50.28395250" lon="3.11962150"><ele>33.302856</ele><time>2009-10-04T07:30:05Z</time></trkpt>
<trkpt lat="50.28319270" lon="3.11951440"><ele>33.783447</ele><time>2009-10-04T07:30:17Z</time></trkpt>
<trkpt lat="50.28302060" lon="3.11949030"><ele>35.706055</ele><time>2009-10-04T07:30:20Z</time></trkpt>
<trkpt lat="50.28293290" lon="3.11947790"><ele>36.66748</ele><time>2009-10-04T07:30:22Z</time></trkpt>
<trkpt lat="50.28289350" lon="3.11944720"><ele>36.186768</ele><time>2009-10-04T07:30:24Z</time></trkpt>
<trkpt lat="50.28298050" lon="3.11885660"><ele>37.628662</ele><time>2009-10-04T07:30:33Z</time></trkpt>
<trkpt lat="50.28301350" lon="3.11885810"><ele>37.628662</ele><time>2009-10-04T07:30:34Z</time></trkpt>
<trkpt lat="50.28314920" lon="3.11886430"><ele>36.66748</ele><time>2009-10-04T07:30:37Z</time></trkpt>
<trkpt lat="50.28338750" lon="3.11883790"><ele>35.706055</ele><time>2009-10-04T07:30:41Z</time></trkpt>
<trkpt lat="50.28348650" lon="3.11877850"><ele>36.66748</ele><time>2009-10-04T07:30:43Z</time></trkpt>
<trkpt lat="50.28370940" lon="3.11874390"><ele>33.783447</ele><time>2009-10-04T07:30:48Z</time></trkpt>
<trkpt lat="50.28378730" lon="3.11874390"><ele>33.302856</ele><time>2009-10-04T07:30:49Z</time></trkpt>
<trkpt lat="50.28411410" lon="3.11876210"><ele>31.380127</ele><time>2009-10-04T07:30:53Z</time></trkpt>
<trkpt lat="50.28478540" lon="3.11890060"><ele>30.418823</ele><time>2009-10-04T07:31:01Z</time></trkpt>
<trkpt lat="50.28492930" lon="3.11876490"><ele>30.899536</ele><time>2009-10-04T07:31:07Z</time></trkpt>
<trkpt lat="50.28494280" lon="3.11864420"><ele>31.380127</ele><time>2009-10-04T07:31:09Z</time></trkpt>
<trkpt lat="50.28495790" lon="3.11850790"><ele>31.860718</ele><time>2009-10-04T07:31:11Z</time></trkpt>
<trkpt lat="50.28498170" lon="3.11826280"><ele>33.302856</ele><time>2009-10-04T07:31:14Z</time></trkpt>
<trkpt lat="50.28516640" lon="3.11776250"><ele>35.225464</ele><time>2009-10-04T07:31:21Z</time></trkpt>
<trkpt lat="50.28534700" lon="3.11779270"><ele>39.070679</ele><time>2009-10-04T07:31:29Z</time></trkpt>
<trkpt lat="50.28572750" lon="3.11770290"><ele>38.590088</ele><time>2009-10-04T07:31:38Z</time></trkpt>
<trkpt lat="50.28595170" lon="3.11764840"><ele>38.590088</ele><time>2009-10-04T07:31:41Z</time></trkpt>
<trkpt lat="50.28619860" lon="3.11775420"><ele>39.070679</ele><time>2009-10-04T07:31:46Z</time></trkpt>
<trkpt lat="50.28671640" lon="3.11856850"><ele>40.032104</ele><time>2009-10-04T07:31:55Z</time></trkpt>
<trkpt lat="50.28714540" lon="3.11839100"><ele>40.032104</ele><time>2009-10-04T07:32:07Z</time></trkpt>
<trkpt lat="50.28742450" lon="3.11825460"><ele>38.109375</ele><time>2009-10-04T07:32:15Z</time></trkpt>
<trkpt lat="50.28752000" lon="3.11820170"><ele>37.148071</ele><time>2009-10-04T07:32:17Z</time></trkpt>
<trkpt lat="50.28786360" lon="3.11801070"><ele>38.590088</ele><time>2009-10-04T07:32:26Z</time></trkpt>
<trkpt lat="50.28816130" lon="3.11783830"><ele>38.109375</ele><time>2009-10-04T07:32:35Z</time></trkpt>
<trkpt lat="50.28827750" lon="3.11776650"><ele>38.109375</ele><time>2009-10-04T07:32:39Z</time></trkpt>
<trkpt lat="50.28842180" lon="3.11767700"><ele>38.109375</ele><time>2009-10-04T07:32:44Z</time></trkpt>
<trkpt lat="50.28864520" lon="3.11753870"><ele>38.109375</ele><time>2009-10-04T07:32:53Z</time></trkpt>
<trkpt lat="50.28851980" lon="3.11683010"><ele>38.590088</ele><time>2009-10-04T07:32:56Z</time></trkpt>
<trkpt lat="50.28866740" lon="3.11679270"><ele>38.109375</ele><time>2009-10-04T07:33:03Z</time></trkpt>
<trkpt lat="50.28885380" lon="3.11682060"><ele>39.070679</ele><time>2009-10-04T07:33:08Z</time></trkpt>
<trkpt lat="50.28914130" lon="3.11670860"><ele>38.109375</ele><time>2009-10-04T07:33:19Z</time></trkpt>
<trkpt lat="50.28920260" lon="3.11665440"><ele>38.109375</ele><time>2009-10-04T07:33:22Z</time></trkpt>
<trkpt lat="50.28925720" lon="3.11661350"><ele>38.590088</ele><time>2009-10-04T07:33:25Z</time></trkpt>
<trkpt lat="50.28932910" lon="3.11642380"><ele>39.070679</ele><time>2009-10-04T07:33:32Z</time></trkpt>
<trkpt lat="50.28937320" lon="3.11639440"><ele>37.148071</ele><time>2009-10-04T07:33:34Z</time></trkpt>
<trkpt lat="50.28951940" lon="3.11634260"><ele>37.628662</ele><time>2009-10-04T07:33:42Z</time></trkpt>
<trkpt lat="50.28980690" lon="3.11611290"><ele>36.66748</ele><time>2009-10-04T07:33:55Z</time></trkpt>
<trkpt lat="50.29032390" lon="3.11632360"><ele>37.628662</ele><time>2009-10-04T07:34:05Z</time></trkpt>
<trkpt lat="50.29055780" lon="3.11611620"><ele>38.590088</ele><time>2009-10-04T07:34:12Z</time></trkpt>
<trkpt lat="50.29089740" lon="3.11582000"><ele>38.590088</ele><time>2009-10-04T07:34:21Z</time></trkpt>
<trkpt lat="50.29119820" lon="3.11558680"><ele>38.590088</ele><time>2009-10-04T07:34:30Z</time></trkpt>
<trkpt lat="50.29129030" lon="3.11550880"><ele>39.070679</ele><time>2009-10-04T07:34:33Z</time></trkpt>
<trkpt lat="50.29135260" lon="3.11545590"><ele>39.070679</ele><time>2009-10-04T07:34:35Z</time></trkpt>
<trkpt lat="50.29155960" lon="3.11528070"><ele>39.070679</ele><time>2009-10-04T07:34:43Z</time></trkpt>
<trkpt lat="50.29167270" lon="3.11518510"><ele>39.070679</ele><time>2009-10-04T07:34:47Z</time></trkpt>
<trkpt lat="50.29180100" lon="3.11506470"><ele>39.55127</ele><time>2009-10-04T07:34:52Z</time></trkpt>
<trkpt lat="50.29181150" lon="3.11505470"><ele>39.55127</ele><time>2009-10-04T07:34:55Z</time></trkpt>
<trkpt lat="50.29188670" lon="3.11498370"><ele>36.186768</ele><time>2009-10-04T07:34:59Z</time></trkpt>
<trkpt lat="50.29208000" lon="3.11480150"><ele>36.186768</ele><time>2009-10-04T07:35:06Z</time></trkpt>
<trkpt lat="50.29220070" lon="3.11468770"><ele>37.148071</ele><time>2009-10-04T07:35:11Z</time></trkpt>
<trkpt lat="50.29233580" lon="3.11456030"><ele>37.628662</ele><time>2009-10-04T07:35:18Z</time></trkpt>
<trkpt lat="50.29248010" lon="3.11442620"><ele>37.628662</ele><time>2009-10-04T07:35:27Z</time></trkpt>
<trkpt lat="50.29266460" lon="3.11425900"><ele>38.109375</ele><time>2009-10-04T07:35:39Z</time></trkpt>
<trkpt lat="50.29294880" lon="3.11400120"><ele>37.628662</ele><time>2009-10-04T07:35:46Z</time></trkpt>
<trkpt lat="50.29307880" lon="3.11388330"><ele>38.590088</ele><time>2009-10-04T07:35:51Z</time></trkpt>
<trkpt lat="50.29316380" lon="3.11380630"><ele>38.109375</ele><time>2009-10-04T07:35:56Z</time></trkpt>
<trkpt lat="50.29331700" lon="3.11366720"><ele>39.070679</ele><time>2009-10-04T07:36:04Z</time></trkpt>
<trkpt lat="50.29353700" lon="3.11346790"><ele>39.55127</ele><time>2009-10-04T07:36:16Z</time></trkpt>
<trkpt lat="50.29367870" lon="3.11333930"><ele>40.032104</ele><time>2009-10-04T07:36:21Z</time></trkpt>
<trkpt lat="50.29377290" lon="3.11325390"><ele>40.032104</ele><time>2009-10-04T07:36:26Z</time></trkpt>
<trkpt lat="50.29390330" lon="3.11313570"><ele>39.070679</ele><time>2009-10-04T07:36:33Z</time></trkpt>
<trkpt lat="50.29401140" lon="3.11303760"><ele>39.070679</ele><time>2009-10-04T07:36:39Z</time></trkpt>
<trkpt lat="50.29410860" lon="3.11294940"><ele>38.109375</ele><time>2009-10-04T07:36:51Z</time></trkpt>
<trkpt lat="50.29407070" lon="3.11233380"><ele>36.66748</ele><time>2009-10-04T07:36:53Z</time></trkpt>
<trkpt lat="50.29410300" lon="3.11237400"><ele>36.66748</ele><time>2009-10-04T07:36:55Z</time></trkpt>
<trkpt lat="50.29415580" lon="3.11242020"><ele>35.706055</ele><time>2009-10-04T07:36:57Z</time></trkpt>
<trkpt lat="50.29435910" lon="3.11243330"><ele>34.26416</ele><time>2009-10-04T07:37:06Z</time></trkpt>
<trkpt lat="50.29442610" lon="3.11238170"><ele>34.26416</ele><time>2009-10-04T07:37:09Z</time></trkpt>
<trkpt lat="50.29477360" lon="3.11210750"><ele>34.26416</ele><time>2009-10-04T07:37:21Z</time></trkpt>
<trkpt lat="50.29507110" lon="3.11185950"><ele>34.744873</ele><time>2009-10-04T07:37:30Z</time></trkpt>
<trkpt lat="50.29521590" lon="3.11157220"><ele>35.225464</ele><time>2009-10-04T07:37:35Z</time></trkpt>
<trkpt lat="50.29550820" lon="3.11132530"><ele>36.66748</ele><time>2009-10-04T07:37:44Z</time></trkpt>
<trkpt lat="50.29558420" lon="3.11116260"><ele>36.186768</ele><time>2009-10-04T07:37:47Z</time></trkpt>
<trkpt lat="50.29586060" lon="3.11130790"><ele>38.109375</ele><time>2009-10-04T07:37:52Z</time></trkpt>
<trkpt lat="50.29649920" lon="3.11067200"><ele>35.706055</ele><time>2009-10-04T07:38:04Z</time></trkpt>
<trkpt lat="50.29693970" lon="3.11021800"><ele>33.302856</ele><time>2009-10-04T07:38:11Z</time></trkpt>
<trkpt lat="50.29703540" lon="3.11011940"><ele>40.512817</ele><time>2009-10-04T07:38:15Z</time></trkpt>
<trkpt lat="50.29703540" lon="3.11011940"><ele>40.512817</ele><time>2009-10-04T07:38:16Z</time></trkpt>
<trkpt lat="50.29703540" lon="3.11011940"><ele>40.993408</ele><time>2009-10-04T07:38:17Z</time></trkpt>
<trkpt lat="50.29718800" lon="3.10996210"><ele>43.877319</ele><time>2009-10-04T07:38:27Z</time></trkpt>
<trkpt lat="50.29720420" lon="3.10994530"><ele>44.358032</ele><time>2009-10-04T07:38:28Z</time></trkpt>
<trkpt lat="50.29752320" lon="3.10961670"><ele>43.396606</ele><time>2009-10-04T07:38:38Z</time></trkpt>
<trkpt lat="50.29772890" lon="3.10939090"><ele>40.032104</ele><time>2009-10-04T07:38:42Z</time></trkpt>
<trkpt lat="50.29777590" lon="3.10933750"><ele>39.55127</ele><time>2009-10-04T07:38:43Z</time></trkpt>
<trkpt lat="50.29812490" lon="3.10894100"><ele>39.55127</ele><time>2009-10-04T07:38:51Z</time></trkpt>
<trkpt lat="50.29825780" lon="3.10879010"><ele>38.109375</ele><time>2009-10-04T07:38:53Z</time></trkpt>
<trkpt lat="50.29845380" lon="3.10856750"><ele>34.26416</ele><time>2009-10-04T07:38:56Z</time></trkpt>
<trkpt lat="50.29884980" lon="3.10811780"><ele>37.628662</ele><time>2009-10-04T07:39:02Z</time></trkpt>
<trkpt lat="50.29890650" lon="3.10805340"><ele>39.55127</ele><time>2009-10-04T07:39:03Z</time></trkpt>
<trkpt lat="50.29905560" lon="3.10788400"><ele>40.512817</ele><time>2009-10-04T07:39:05Z</time></trkpt>
<trkpt lat="50.29915600" lon="3.10776990"><ele>42.435425</ele><time>2009-10-04T07:39:07Z</time></trkpt>
<trkpt lat="50.29924650" lon="3.10766720"><ele>43.396606</ele><time>2009-10-04T07:39:09Z</time></trkpt>
<trkpt lat="50.29943090" lon="3.10745770"><ele>43.396606</ele><time>2009-10-04T07:39:13Z</time></trkpt>
<trkpt lat="50.29957690" lon="3.10729200"><ele>41.954712</ele><time>2009-10-04T07:39:16Z</time></trkpt>
<trkpt lat="50.29982670" lon="3.10700830"><ele>40.032104</ele><time>2009-10-04T07:39:23Z</time></trkpt>
<trkpt lat="50.29995230" lon="3.10686550"><ele>40.032104</ele><time>2009-10-04T07:39:28Z</time></trkpt>
<trkpt lat="50.30001580" lon="3.10679350"><ele>39.55127</ele><time>2009-10-04T07:39:30Z</time></trkpt>
<trkpt lat="50.30010490" lon="3.10669210"><ele>39.55127</ele><time>2009-10-04T07:39:32Z</time></trkpt>
<trkpt lat="50.30015930" lon="3.10663040"><ele>40.032104</ele><time>2009-10-04T07:39:34Z</time></trkpt>
<trkpt lat="50.30026900" lon="3.10650580"><ele>39.55127</ele><time>2009-10-04T07:39:37Z</time></trkpt>
<trkpt lat="50.30039820" lon="3.10635900"><ele>40.032104</ele><time>2009-10-04T07:39:41Z</time></trkpt>
<trkpt lat="50.30069440" lon="3.10602260"><ele>40.032104</ele><time>2009-10-04T07:39:48Z</time></trkpt>
<trkpt lat="50.30077330" lon="3.10593300"><ele>40.512817</ele><time>2009-10-04T07:39:50Z</time></trkpt>
<trkpt lat="50.30076490" lon="3.10537370"><ele>38.109375</ele><time>2009-10-04T07:39:58Z</time></trkpt>
<trkpt lat="50.30076540" lon="3.10524990"><ele>38.109375</ele><time>2009-10-04T07:40:07Z</time></trkpt>
<trkpt lat="50.30086360" lon="3.10484850"><ele>38.109375</ele><time>2009-10-04T07:40:17Z</time></trkpt>
<trkpt lat="50.30086860" lon="3.10472790"><ele>38.590088</ele><time>2009-10-04T07:40:21Z</time></trkpt>
<trkpt lat="50.30089190" lon="3.10448830"><ele>38.590088</ele><time>2009-10-04T07:40:30Z</time></trkpt>
<trkpt lat="50.30106350" lon="3.10444580"><ele>40.512817</ele><time>2009-10-04T07:40:40Z</time></trkpt>
<trkpt lat="50.30117460" lon="3.10452890"><ele>40.993408</ele><time>2009-10-04T07:40:45Z</time></trkpt>
<trkpt lat="50.30120990" lon="3.10479820"><ele>40.993408</ele><time>2009-10-04T07:40:53Z</time></trkpt>
<trkpt lat="50.30123640" lon="3.10485210"><ele>40.993408</ele><time>2009-10-04T07:40:55Z</time></trkpt>
<trkpt lat="50.30129840" lon="3.10486870"><ele>41.473999</ele><time>2009-10-04T07:40:59Z</time></trkpt>
<trkpt lat="50.30151200" lon="3.10477960"><ele>40.993408</ele><time>2009-10-04T07:41:08Z</time></trkpt>
<trkpt lat="50.30154190" lon="3.10474930"><ele>40.993408</ele><time>2009-10-04T07:41:09Z</time></trkpt>
<trkpt lat="50.30181370" lon="3.10446930"><ele>40.993408</ele><time>2009-10-04T07:41:22Z</time></trkpt>
<trkpt lat="50.30202420" lon="3.10419220"><ele>40.993408</ele><time>2009-10-04T07:41:33Z</time></trkpt>
<trkpt lat="50.30221170" lon="3.10391400"><ele>41.473999</ele><time>2009-10-04T07:41:43Z</time></trkpt>
<trkpt lat="50.30232680" lon="3.10355900"><ele>41.473999</ele><time>2009-10-04T07:41:54Z</time></trkpt>
<trkpt lat="50.30243700" lon="3.10321030"><ele>44.838623</ele><time>2009-10-04T07:42:03Z</time></trkpt>
<trkpt lat="50.30244890" lon="3.10317120"><ele>45.319214</ele><time>2009-10-04T07:42:04Z</time></trkpt>
<trkpt lat="50.30242660" lon="3.10296130"><ele>45.319214</ele><time>2009-10-04T07:42:08Z</time></trkpt>
<trkpt lat="50.30241370" lon="3.10270710"><ele>45.799927</ele><time>2009-10-04T07:42:12Z</time></trkpt>
<trkpt lat="50.30245670" lon="3.10231060"><ele>44.838623</ele><time>2009-10-04T07:42:19Z</time></trkpt>
<trkpt lat="50.30247900" lon="3.10212790"><ele>45.319214</ele><time>2009-10-04T07:42:23Z</time></trkpt>
<trkpt lat="50.30266410" lon="3.10196270"><ele>44.838623</ele><time>2009-10-04T07:42:30Z</time></trkpt>
<trkpt lat="50.30283530" lon="3.10188420"><ele>44.838623</ele><time>2009-10-04T07:42:35Z</time></trkpt>
<trkpt lat="50.30305210" lon="3.10127860"><ele>44.358032</ele><time>2009-10-04T07:42:43Z</time></trkpt>
<trkpt lat="50.30314230" lon="3.10126020"><ele>43.396606</ele><time>2009-10-04T07:42:45Z</time></trkpt>
<trkpt lat="50.30344920" lon="3.10119730"><ele>40.512817</ele><time>2009-10-04T07:42:53Z</time></trkpt>
<trkpt lat="50.30355540" lon="3.10117550"><ele>36.66748</ele><time>2009-10-04T07:42:55Z</time></trkpt>
<trkpt lat="50.30359190" lon="3.10116810"><ele>34.26416</ele><time>2009-10-04T07:42:56Z</time></trkpt>
<trkpt lat="50.30385720" lon="3.10111370"><ele>34.26416</ele><time>2009-10-04T07:43:02Z</time></trkpt>
<trkpt lat="50.30419410" lon="3.10104470"><ele>34.26416</ele><time>2009-10-04T07:43:08Z</time></trkpt>
<trkpt lat="50.30444110" lon="3.10064280"><ele>31.860718</ele><time>2009-10-04T07:43:13Z</time></trkpt>
<trkpt lat="50.30488020" lon="3.09965970"><ele>32.822266</ele><time>2009-10-04T07:43:26Z</time></trkpt>
<trkpt lat="50.30497330" lon="3.09942850"><ele>32.341553</ele><time>2009-10-04T07:43:29Z</time></trkpt>
<trkpt lat="50.30509700" lon="3.09903260"><ele>33.302856</ele><time>2009-10-04T07:43:34Z</time></trkpt>
<trkpt lat="50.30517540" lon="3.09877980"><ele>34.26416</ele><time>2009-10-04T07:43:37Z</time></trkpt>
<trkpt lat="50.30526320" lon="3.09841120"><ele>34.744873</ele><time>2009-10-04T07:43:41Z</time></trkpt>
<trkpt lat="50.30530810" lon="3.09824160"><ele>34.744873</ele><time>2009-10-04T07:43:43Z</time></trkpt>
<trkpt lat="50.30541560" lon="3.09786540"><ele>36.186768</ele><time>2009-10-04T07:43:50Z</time></trkpt>
<trkpt lat="50.30561860" lon="3.09781640"><ele>36.66748</ele><time>2009-10-04T07:43:55Z</time></trkpt>
<trkpt lat="50.30629460" lon="3.09809970"><ele>36.66748</ele><time>2009-10-04T07:44:08Z</time></trkpt>
<trkpt lat="50.30658680" lon="3.09822890"><ele>36.186768</ele><time>2009-10-04T07:44:14Z</time></trkpt>
<trkpt lat="50.30741160" lon="3.09864140"><ele>32.341553</ele><time>2009-10-04T07:44:27Z</time></trkpt>
<trkpt lat="50.30797650" lon="3.09874840"><ele>30.418823</ele><time>2009-10-04T07:44:35Z</time></trkpt>
<trkpt lat="50.30832520" lon="3.09912930"><ele>29.93811</ele><time>2009-10-04T07:44:42Z</time></trkpt>
<trkpt lat="50.30808880" lon="3.09959680"><ele>28.015503</ele><time>2009-10-04T07:44:47Z</time></trkpt>
<trkpt lat="50.30752660" lon="3.09986510"><ele>27.534912</ele><time>2009-10-04T07:44:54Z</time></trkpt>
<trkpt lat="50.30738210" lon="3.09994760"><ele>28.496216</ele><time>2009-10-04T07:44:56Z</time></trkpt>
<trkpt lat="50.30714860" lon="3.09974490"><ele>27.054321</ele><time>2009-10-04T07:45:01Z</time></trkpt>
<trkpt lat="50.30669690" lon="3.09904580"><ele>27.534912</ele><time>2009-10-04T07:45:10Z</time></trkpt>
<trkpt lat="50.30637850" lon="3.09850710"><ele>28.496216</ele><time>2009-10-04T07:45:15Z</time></trkpt>
<trkpt lat="50.30625110" lon="3.09819680"><ele>31.860718</ele><time>2009-10-04T07:45:21Z</time></trkpt>
<trkpt lat="50.30631570" lon="3.09800310"><ele>29.93811</ele><time>2009-10-04T07:45:24Z</time></trkpt>
<trkpt lat="50.30636780" lon="3.09780940"><ele>28.976929</ele><time>2009-10-04T07:45:26Z</time></trkpt>
<trkpt lat="50.30659070" lon="3.09683240"><ele>29.93811</ele><time>2009-10-04T07:45:36Z</time></trkpt>
<trkpt lat="50.30689000" lon="3.09672830"><ele>31.380127</ele><time>2009-10-04T07:45:41Z</time></trkpt>
<trkpt lat="50.30689000" lon="3.09672830"><ele>31.860718</ele><time>2009-10-04T07:45:46Z</time></trkpt>
<trkpt lat="50.30689000" lon="3.09672830"><ele>32.341553</ele><time>2009-10-04T07:45:53Z</time></trkpt>
<trkpt lat="50.30686410" lon="3.09594810"><ele>32.341553</ele><time>2009-10-04T07:46:05Z</time></trkpt>
<trkpt lat="50.30692760" lon="3.09572090"><ele>32.341553</ele><time>2009-10-04T07:46:09Z</time></trkpt>
<trkpt lat="50.30701990" lon="3.09546930"><ele>31.860718</ele><time>2009-10-04T07:46:13Z</time></trkpt>
<trkpt lat="50.30707390" lon="3.09522300"><ele>31.860718</ele><time>2009-10-04T07:46:17Z</time></trkpt>
<trkpt lat="50.30709080" lon="3.09507040"><ele>31.860718</ele><time>2009-10-04T07:46:19Z</time></trkpt>
<trkpt lat="50.30715450" lon="3.09466310"><ele>31.860718</ele><time>2009-10-04T07:46:25Z</time></trkpt>
<trkpt lat="50.30716050" lon="3.09453180"><ele>31.860718</ele><time>2009-10-04T07:46:27Z</time></trkpt>
<trkpt lat="50.30726440" lon="3.09402590"><ele>32.822266</ele><time>2009-10-04T07:46:34Z</time></trkpt>
<trkpt lat="50.30729770" lon="3.09381010"><ele>35.225464</ele><time>2009-10-04T07:46:40Z</time></trkpt>
<trkpt lat="50.30729770" lon="3.09381010"><ele>35.706055</ele><time>2009-10-04T07:46:41Z</time></trkpt>
<trkpt lat="50.30724590" lon="3.09287980"><ele>36.66748</ele><time>2009-10-04T07:46:48Z</time></trkpt>
<trkpt lat="50.30729500" lon="3.09262580"><ele>37.148071</ele><time>2009-10-04T07:46:51Z</time></trkpt>
<trkpt lat="50.30735980" lon="3.09232730"><ele>37.628662</ele><time>2009-10-04T07:46:54Z</time></trkpt>
<trkpt lat="50.30749380" lon="3.09175460"><ele>38.109375</ele><time>2009-10-04T07:47:01Z</time></trkpt>
<trkpt lat="50.30764710" lon="3.09120540"><ele>37.628662</ele><time>2009-10-04T07:47:09Z</time></trkpt>
<trkpt lat="50.30782310" lon="3.09065550"><ele>33.302856</ele><time>2009-10-04T07:47:15Z</time></trkpt>
<trkpt lat="50.30795910" lon="3.09026220"><ele>30.899536</ele><time>2009-10-04T07:47:19Z</time></trkpt>
<trkpt lat="50.30830350" lon="3.08936680"><ele>32.341553</ele><time>2009-10-04T07:47:30Z</time></trkpt>
<trkpt lat="50.30840330" lon="3.08914920"><ele>31.380127</ele><time>2009-10-04T07:47:34Z</time></trkpt>
<trkpt lat="50.30848990" lon="3.08913560"><ele>31.860718</ele><time>2009-10-04T07:47:38Z</time></trkpt>
<trkpt lat="50.30844780" lon="3.08899690"><ele>31.380127</ele><time>2009-10-04T07:47:41Z</time></trkpt>
<trkpt lat="50.30856600" lon="3.08881610"><ele>30.418823</ele><time>2009-10-04T07:47:46Z</time></trkpt>
<trkpt lat="50.30909530" lon="3.08778460"><ele>27.534912</ele><time>2009-10-04T07:47:58Z</time></trkpt>
<trkpt lat="50.30977870" lon="3.08671560"><ele>28.496216</ele><time>2009-10-04T07:48:11Z</time></trkpt>
<trkpt lat="50.30989630" lon="3.08653420"><ele>29.93811</ele><time>2009-10-04T07:48:15Z</time></trkpt>
<trkpt lat="50.31010370" lon="3.08627810"><ele>28.015503</ele><time>2009-10-04T07:48:19Z</time></trkpt>
<trkpt lat="50.31086150" lon="3.08543140"><ele>28.976929</ele><time>2009-10-04T07:48:32Z</time></trkpt>
<trkpt lat="50.31137050" lon="3.08488320"><ele>30.418823</ele><time>2009-10-04T07:48:41Z</time></trkpt>
<trkpt lat="50.31202500" lon="3.08415490"><ele>30.418823</ele><time>2009-10-04T07:48:53Z</time></trkpt>
<trkpt lat="50.31279910" lon="3.08327940"><ele>29.45752</ele><time>2009-10-04T07:49:07Z</time></trkpt>
<trkpt lat="50.31294200" lon="3.08311780"><ele>29.93811</ele><time>2009-10-04T07:49:10Z</time></trkpt>
<trkpt lat="50.31324940" lon="3.08277020"><ele>28.976929</ele><time>2009-10-04T07:49:16Z</time></trkpt>
<trkpt lat="50.31346420" lon="3.08279290"><ele>30.899536</ele><time>2009-10-04T07:49:23Z</time></trkpt>
<trkpt lat="50.31347590" lon="3.08282250"><ele>29.93811</ele><time>2009-10-04T07:49:31Z</time></trkpt>
<trkpt lat="50.31347590" lon="3.08282250"><ele>29.45752</ele><time>2009-10-04T07:49:33Z</time></trkpt>
<trkpt lat="50.31351970" lon="3.08293330"><ele>28.496216</ele><time>2009-10-04T07:49:36Z</time></trkpt>
<trkpt lat="50.31362450" lon="3.08319880"><ele>26.092896</ele><time>2009-10-04T07:49:44Z</time></trkpt>
<trkpt lat="50.31383260" lon="3.08367440"><ele>27.054321</ele><time>2009-10-04T07:49:52Z</time></trkpt>
<trkpt lat="50.31414050" lon="3.08485730"><ele>26.092896</ele><time>2009-10-04T07:50:07Z</time></trkpt>
<trkpt lat="50.31432680" lon="3.08561120"><ele>26.092896</ele><time>2009-10-04T07:50:16Z</time></trkpt>
<trkpt lat="50.31439720" lon="3.08596300"><ele>26.092896</ele><time>2009-10-04T07:50:20Z</time></trkpt>
<trkpt lat="50.31443220" lon="3.08613800"><ele>26.092896</ele><time>2009-10-04T07:50:22Z</time></trkpt>
<trkpt lat="50.31467910" lon="3.08612820"><ele>26.092896</ele><time>2009-10-04T07:50:28Z</time></trkpt>
<trkpt lat="50.31483400" lon="3.08603140"><ele>23.689575</ele><time>2009-10-04T07:50:31Z</time></trkpt>
<trkpt lat="50.31504400" lon="3.08579550"><ele>24.651001</ele><time>2009-10-04T07:50:35Z</time></trkpt>
<trkpt lat="50.31539770" lon="3.08524890"><ele>24.170288</ele><time>2009-10-04T07:50:43Z</time></trkpt>
<trkpt lat="50.31550710" lon="3.08511560"><ele>24.170288</ele><time>2009-10-04T07:50:45Z</time></trkpt>
<trkpt lat="50.31640980" lon="3.08404390"><ele>24.170288</ele><time>2009-10-04T07:51:00Z</time></trkpt>
<trkpt lat="50.31649830" lon="3.08387920"><ele>23.689575</ele><time>2009-10-04T07:51:02Z</time></trkpt>
<trkpt lat="50.31715250" lon="3.08275230"><ele>23.689575</ele><time>2009-10-04T07:51:15Z</time></trkpt>
<trkpt lat="50.31762360" lon="3.08196940"><ele>24.651001</ele><time>2009-10-04T07:51:25Z</time></trkpt>
<trkpt lat="50.31766870" lon="3.08189440"><ele>23.689575</ele><time>2009-10-04T07:51:26Z</time></trkpt>
<trkpt lat="50.31775220" lon="3.08175560"><ele>23.208984</ele><time>2009-10-04T07:51:28Z</time></trkpt>
<trkpt lat="50.31816270" lon="3.08096400"><ele>22.728271</ele><time>2009-10-04T07:51:37Z</time></trkpt>
<trkpt lat="50.31835380" lon="3.08077710"><ele>23.208984</ele><time>2009-10-04T07:51:41Z</time></trkpt>
<trkpt lat="50.31847400" lon="3.08057750"><ele>24.170288</ele><time>2009-10-04T07:51:44Z</time></trkpt>
<trkpt lat="50.31882680" lon="3.07996520"><ele>24.170288</ele><time>2009-10-04T07:51:53Z</time></trkpt>
<trkpt lat="50.31891770" lon="3.07980740"><ele>25.131714</ele><time>2009-10-04T07:51:56Z</time></trkpt>
<trkpt lat="50.31915050" lon="3.07941060"><ele>24.170288</ele><time>2009-10-04T07:52:06Z</time></trkpt>
<trkpt lat="50.31950490" lon="3.07887880"><ele>24.651001</ele><time>2009-10-04T07:52:16Z</time></trkpt>
<trkpt lat="50.31993140" lon="3.07827450"><ele>24.170288</ele><time>2009-10-04T07:52:26Z</time></trkpt>
<trkpt lat="50.31998130" lon="3.07820380"><ele>26.092896</ele><time>2009-10-04T07:52:29Z</time></trkpt>
<trkpt lat="50.32023840" lon="3.07783950"><ele>25.612305</ele><time>2009-10-04T07:52:38Z</time></trkpt>
<trkpt lat="50.32036640" lon="3.07765820"><ele>25.612305</ele><time>2009-10-04T07:52:51Z</time></trkpt>
<trkpt lat="50.32063270" lon="3.07728080"><ele>25.131714</ele><time>2009-10-04T07:53:00Z</time></trkpt>
<trkpt lat="50.32073010" lon="3.07714280"><ele>25.131714</ele><time>2009-10-04T07:53:04Z</time></trkpt>
<trkpt lat="50.32111790" lon="3.07658590"><ele>25.131714</ele><time>2009-10-04T07:53:16Z</time></trkpt>
<trkpt lat="50.32127310" lon="3.07634760"><ele>25.131714</ele><time>2009-10-04T07:53:25Z</time></trkpt>
<trkpt lat="50.32148180" lon="3.07602720"><ele>24.651001</ele><time>2009-10-04T07:53:35Z</time></trkpt>
<trkpt lat="50.32154340" lon="3.07593270"><ele>26.092896</ele><time>2009-10-04T07:53:38Z</time></trkpt>
<trkpt lat="50.32157740" lon="3.07588070"><ele>25.131714</ele><time>2009-10-04T07:53:43Z</time></trkpt>
<trkpt lat="50.32182390" lon="3.07550220"><ele>25.612305</ele><time>2009-10-04T07:53:54Z</time></trkpt>
<trkpt lat="50.32205860" lon="3.07515330"><ele>25.612305</ele><time>2009-10-04T07:54:07Z</time></trkpt>
<trkpt lat="50.32226480" lon="3.07486460"><ele>25.612305</ele><time>2009-10-04T07:54:18Z</time></trkpt>
<trkpt lat="50.32270340" lon="3.07425050"><ele>25.612305</ele><time>2009-10-04T07:54:32Z</time></trkpt>
<trkpt lat="50.32307180" lon="3.07373480"><ele>26.092896</ele><time>2009-10-04T07:54:45Z</time></trkpt>
<trkpt lat="50.32330470" lon="3.07340880"><ele>25.612305</ele><time>2009-10-04T07:54:55Z</time></trkpt>
<trkpt lat="50.32362390" lon="3.07296180"><ele>25.612305</ele><time>2009-10-04T07:55:05Z</time></trkpt>
<trkpt lat="50.32392450" lon="3.07253000"><ele>27.534912</ele><time>2009-10-04T07:55:16Z</time></trkpt>
<trkpt lat="50.32393910" lon="3.07250060"><ele>27.534912</ele><time>2009-10-04T07:55:21Z</time></trkpt>
<trkpt lat="50.32349020" lon="3.07258180"><ele>27.534912</ele><time>2009-10-04T07:55:30Z</time></trkpt>
<trkpt lat="50.32323190" lon="3.07271100"><ele>27.534912</ele><time>2009-10-04T07:55:36Z</time></trkpt>
<trkpt lat="50.32295070" lon="3.07278160"><ele>26.573608</ele><time>2009-10-04T07:55:42Z</time></trkpt>
<trkpt lat="50.32270430" lon="3.07273860"><ele>25.612305</ele><time>2009-10-04T07:55:47Z</time></trkpt>
<trkpt lat="50.32250210" lon="3.07264670"><ele>27.054321</ele><time>2009-10-04T07:55:52Z</time></trkpt>
<trkpt lat="50.32246830" lon="3.07263140"><ele>25.612305</ele><time>2009-10-04T07:55:59Z</time></trkpt>
<trkpt lat="50.32270590" lon="3.07223910"><ele>26.573608</ele><time>2009-10-04T07:56:02Z</time></trkpt>
<trkpt lat="50.32319580" lon="3.07170020"><ele>27.054321</ele><time>2009-10-04T07:56:13Z</time></trkpt>
<trkpt lat="50.32341100" lon="3.07162320"><ele>26.092896</ele><time>2009-10-04T07:56:17Z</time></trkpt>
<trkpt lat="50.32386670" lon="3.07180880"><ele>27.054321</ele><time>2009-10-04T07:56:25Z</time></trkpt>
<trkpt lat="50.32403850" lon="3.07190560"><ele>27.534912</ele><time>2009-10-04T07:56:28Z</time></trkpt>
<trkpt lat="50.32420440" lon="3.07180820"><ele>25.131714</ele><time>2009-10-04T07:56:32Z</time></trkpt>
<trkpt lat="50.32429880" lon="3.07166650"><ele>24.651001</ele><time>2009-10-04T07:56:34Z</time></trkpt>
<trkpt lat="50.32446880" lon="3.07143440"><ele>23.208984</ele><time>2009-10-04T07:56:37Z</time></trkpt>
<trkpt lat="50.32512070" lon="3.07074610"><ele>21.766968</ele><time>2009-10-04T07:56:50Z</time></trkpt>
<trkpt lat="50.32591650" lon="3.06960070"><ele>21.766968</ele><time>2009-10-04T07:57:03Z</time></trkpt>
<trkpt lat="50.32684180" lon="3.06862510"><ele>23.208984</ele><time>2009-10-04T07:57:17Z</time></trkpt>
<trkpt lat="50.32765350" lon="3.06797070"><ele>23.689575</ele><time>2009-10-04T07:57:29Z</time></trkpt>
<trkpt lat="50.32768640" lon="3.06794330"><ele>25.131714</ele><time>2009-10-04T07:57:30Z</time></trkpt>
<trkpt lat="50.32774060" lon="3.06798640"><ele>25.612305</ele><time>2009-10-04T07:57:32Z</time></trkpt>
<trkpt lat="50.32779200" lon="3.06811150"><ele>24.651001</ele><time>2009-10-04T07:57:34Z</time></trkpt>
<trkpt lat="50.32784150" lon="3.06828110"><ele>24.170288</ele><time>2009-10-04T07:57:36Z</time></trkpt>
<trkpt lat="50.32811180" lon="3.06919010"><ele>25.131714</ele><time>2009-10-04T07:57:47Z</time></trkpt>
<trkpt lat="50.32815100" lon="3.06929170"><ele>26.092896</ele><time>2009-10-04T07:57:53Z</time></trkpt>
<trkpt lat="50.32844050" lon="3.07005060"><ele>25.612305</ele><time>2009-10-04T07:58:03Z</time></trkpt>
<trkpt lat="50.32888520" lon="3.07114370"><ele>26.573608</ele><time>2009-10-04T07:58:16Z</time></trkpt>
<trkpt lat="50.32899860" lon="3.07141700"><ele>28.015503</ele><time>2009-10-04T07:58:20Z</time></trkpt>
<trkpt lat="50.32907860" lon="3.07136250"><ele>27.054321</ele><time>2009-10-04T07:58:26Z</time></trkpt>
<trkpt lat="50.32931670" lon="3.07076560"><ele>24.651001</ele><time>2009-10-04T07:58:33Z</time></trkpt>
<trkpt lat="50.32974180" lon="3.06954320"><ele>23.208984</ele><time>2009-10-04T07:58:45Z</time></trkpt>
<trkpt lat="50.32980710" lon="3.06934730"><ele>24.170288</ele><time>2009-10-04T07:58:47Z</time></trkpt>
<trkpt lat="50.32980680" lon="3.06868310"><ele>25.131714</ele><time>2009-10-04T07:58:54Z</time></trkpt>
<trkpt lat="50.32980680" lon="3.06868310"><ele>25.612305</ele><time>2009-10-04T07:58:55Z</time></trkpt>
<trkpt lat="50.32985750" lon="3.06863420"><ele>25.612305</ele><time>2009-10-04T07:58:57Z</time></trkpt>
<trkpt lat="50.33039930" lon="3.06811030"><ele>25.612305</ele><time>2009-10-04T07:59:07Z</time></trkpt>
<trkpt lat="50.33042500" lon="3.06808560"><ele>26.092896</ele><time>2009-10-04T07:59:08Z</time></trkpt>
<trkpt lat="50.33049960" lon="3.06817240"><ele>26.092896</ele><time>2009-10-04T07:59:12Z</time></trkpt>
<trkpt lat="50.33071590" lon="3.06873600"><ele>26.092896</ele><time>2009-10-04T07:59:20Z</time></trkpt>
<trkpt lat="50.33091390" lon="3.06860830"><ele>24.170288</ele><time>2009-10-04T07:59:26Z</time></trkpt>
<trkpt lat="50.33162530" lon="3.06802380"><ele>25.131714</ele><time>2009-10-04T07:59:39Z</time></trkpt>
<trkpt lat="50.33181560" lon="3.06788370"><ele>27.534912</ele><time>2009-10-04T07:59:45Z</time></trkpt>
<trkpt lat="50.33148050" lon="3.06679490"><ele>24.170288</ele><time>2009-10-04T07:59:55Z</time></trkpt>
<trkpt lat="50.33156480" lon="3.06661560"><ele>23.689575</ele><time>2009-10-04T08:00:01Z</time></trkpt>
<trkpt lat="50.33168470" lon="3.06636080"><ele>24.651001</ele><time>2009-10-04T08:00:06Z</time></trkpt>
<trkpt lat="50.33180480" lon="3.06610570"><ele>24.651001</ele><time>2009-10-04T08:00:10Z</time></trkpt>
<trkpt lat="50.33202290" lon="3.06592320"><ele>23.689575</ele><time>2009-10-04T08:00:15Z</time></trkpt>
<trkpt lat="50.33212730" lon="3.06584860"><ele>23.208984</ele><time>2009-10-04T08:00:17Z</time></trkpt>
<trkpt lat="50.33265530" lon="3.06533210"><ele>23.689575</ele><time>2009-10-04T08:00:28Z</time></trkpt>
<trkpt lat="50.33298240" lon="3.06515760"><ele>23.689575</ele><time>2009-10-04T08:00:34Z</time></trkpt>
<trkpt lat="50.33370380" lon="3.06487460"><ele>23.689575</ele><time>2009-10-04T08:00:46Z</time></trkpt>
<trkpt lat="50.33425040" lon="3.06472320"><ele>23.689575</ele><time>2009-10-04T08:00:55Z</time></trkpt>
<trkpt lat="50.33441840" lon="3.06469540"><ele>22.728271</ele><time>2009-10-04T08:00:59Z</time></trkpt>
<trkpt lat="50.33450560" lon="3.06468290"><ele>22.728271</ele><time>2009-10-04T08:01:01Z</time></trkpt>
<trkpt lat="50.33473240" lon="3.06471600"><ele>22.247559</ele><time>2009-10-04T08:01:06Z</time></trkpt>
<trkpt lat="50.33501590" lon="3.06480760"><ele>21.766968</ele><time>2009-10-04T08:01:11Z</time></trkpt>
<trkpt lat="50.33533260" lon="3.06491000"><ele>21.766968</ele><time>2009-10-04T08:01:17Z</time></trkpt>
<trkpt lat="50.33564460" lon="3.06501100"><ele>21.766968</ele><time>2009-10-04T08:01:23Z</time></trkpt>
<trkpt lat="50.33597810" lon="3.06511880"><ele>21.766968</ele><time>2009-10-04T08:01:28Z</time></trkpt>
<trkpt lat="50.33613770" lon="3.06514970"><ele>23.689575</ele><time>2009-10-04T08:01:31Z</time></trkpt>
<trkpt lat="50.33636920" lon="3.06517520"><ele>23.208984</ele><time>2009-10-04T08:01:37Z</time></trkpt>
<trkpt lat="50.33671600" lon="3.06523940"><ele>23.689575</ele><time>2009-10-04T08:01:43Z</time></trkpt>
<trkpt lat="50.33700880" lon="3.06529370"><ele>23.689575</ele><time>2009-10-04T08:01:55Z</time></trkpt>
<trkpt lat="50.33710730" lon="3.06531180"><ele>23.689575</ele><time>2009-10-04T08:02:05Z</time></trkpt>
<trkpt lat="50.33720730" lon="3.06533030"><ele>23.208984</ele><time>2009-10-04T08:02:10Z</time></trkpt>
<trkpt lat="50.33731090" lon="3.06534950"><ele>23.208984</ele><time>2009-10-04T08:02:15Z</time></trkpt>
<trkpt lat="50.33748980" lon="3.06538640"><ele>25.131714</ele><time>2009-10-04T08:02:28Z</time></trkpt>
<trkpt lat="50.33748980" lon="3.06538640"><ele>26.573608</ele><time>2009-10-04T08:02:35Z</time></trkpt>
<trkpt lat="50.33746720" lon="3.06482080"><ele>26.092896</ele><time>2009-10-04T08:02:39Z</time></trkpt>
<trkpt lat="50.33746200" lon="3.06471210"><ele>25.612305</ele><time>2009-10-04T08:02:45Z</time></trkpt>
<trkpt lat="50.33745450" lon="3.06455650"><ele>24.170288</ele><time>2009-10-04T08:02:47Z</time></trkpt>
<trkpt lat="50.33746720" lon="3.06400030"><ele>23.689575</ele><time>2009-10-04T08:02:53Z</time></trkpt>
<trkpt lat="50.33742530" lon="3.06373260"><ele>23.208984</ele><time>2009-10-04T08:02:59Z</time></trkpt>
<trkpt lat="50.33725450" lon="3.06367480"><ele>22.247559</ele><time>2009-10-04T08:03:03Z</time></trkpt>
<trkpt lat="50.33700330" lon="3.06344650"><ele>22.728271</ele><time>2009-10-04T08:03:09Z</time></trkpt>
<trkpt lat="50.33675650" lon="3.06315350"><ele>23.208984</ele><time>2009-10-04T08:03:17Z</time></trkpt>
<trkpt lat="50.33649900" lon="3.06327770"><ele>22.247559</ele><time>2009-10-04T08:03:24Z</time></trkpt>
<trkpt lat="50.33645460" lon="3.06327870"><ele>22.247559</ele><time>2009-10-04T08:03:25Z</time></trkpt>
<trkpt lat="50.33629360" lon="3.06317510"><ele>22.247559</ele><time>2009-10-04T08:03:28Z</time></trkpt>
<trkpt lat="50.33551970" lon="3.06324130"><ele>23.208984</ele><time>2009-10-04T08:03:35Z</time></trkpt>
<trkpt lat="50.33568120" lon="3.06286970"><ele>25.131714</ele><time>2009-10-04T08:03:38Z</time></trkpt>
<trkpt lat="50.33535220" lon="3.06294490"><ele>22.728271</ele><time>2009-10-04T08:03:43Z</time></trkpt>
<trkpt lat="50.33501260" lon="3.06262640"><ele>21.286377</ele><time>2009-10-04T08:03:49Z</time></trkpt>
<trkpt lat="50.33483070" lon="3.06250280"><ele>23.689575</ele><time>2009-10-04T08:03:53Z</time></trkpt>
<trkpt lat="50.33449340" lon="3.06227330"><ele>22.728271</ele><time>2009-10-04T08:04:02Z</time></trkpt>
<trkpt lat="50.33403310" lon="3.06193440"><ele>24.651001</ele><time>2009-10-04T08:04:11Z</time></trkpt>
<trkpt lat="50.33382060" lon="3.06172960"><ele>24.651001</ele><time>2009-10-04T08:04:16Z</time></trkpt>
<trkpt lat="50.33370100" lon="3.06159090"><ele>24.651001</ele><time>2009-10-04T08:04:19Z</time></trkpt>
<trkpt lat="50.33339910" lon="3.06138240"><ele>24.651001</ele><time>2009-10-04T08:04:23Z</time></trkpt>
<trkpt lat="50.33311130" lon="3.06139880"><ele>25.131714</ele><time>2009-10-04T08:04:28Z</time></trkpt>
<trkpt lat="50.33288980" lon="3.06128240"><ele>27.054321</ele><time>2009-10-04T08:04:35Z</time></trkpt>
<trkpt lat="50.33287840" lon="3.06099740"><ele>27.054321</ele><time>2009-10-04T08:04:43Z</time></trkpt>
<trkpt lat="50.33316800" lon="3.06068280"><ele>26.573608</ele><time>2009-10-04T08:04:51Z</time></trkpt>
<trkpt lat="50.33369240" lon="3.06009500"><ele>25.612305</ele><time>2009-10-04T08:05:03Z</time></trkpt>
<trkpt lat="50.33436130" lon="3.05933930"><ele>25.131714</ele><time>2009-10-04T08:05:14Z</time></trkpt>
<trkpt lat="50.33511140" lon="3.05852440"><ele>25.131714</ele><time>2009-10-04T08:05:26Z</time></trkpt>
<trkpt lat="50.33516880" lon="3.05846010"><ele>25.612305</ele><time>2009-10-04T08:05:27Z</time></trkpt>
<trkpt lat="50.33628400" lon="3.05720880"><ele>25.131714</ele><time>2009-10-04T08:05:45Z</time></trkpt>
<trkpt lat="50.33646370" lon="3.05700720"><ele>25.612305</ele><time>2009-10-04T08:05:48Z</time></trkpt>
<trkpt lat="50.33694090" lon="3.05647950"><ele>28.496216</ele><time>2009-10-04T08:05:56Z</time></trkpt>
<trkpt lat="50.33717630" lon="3.05621930"><ele>31.860718</ele><time>2009-10-04T08:06:02Z</time></trkpt>
<trkpt lat="50.33734620" lon="3.05618880"><ele>32.341553</ele><time>2009-10-04T08:06:09Z</time></trkpt>
<trkpt lat="50.33699030" lon="3.05542930"><ele>32.341553</ele><time>2009-10-04T08:06:24Z</time></trkpt>
<trkpt lat="50.33675940" lon="3.05542190"><ele>31.380127</ele><time>2009-10-04T08:06:31Z</time></trkpt>
<trkpt lat="50.33658580" lon="3.05562560"><ele>29.45752</ele><time>2009-10-04T08:06:35Z</time></trkpt>
<trkpt lat="50.33627040" lon="3.05602780"><ele>26.573608</ele><time>2009-10-04T08:06:40Z</time></trkpt>
<trkpt lat="50.33614370" lon="3.05618950"><ele>26.092896</ele><time>2009-10-04T08:06:42Z</time></trkpt>
<trkpt lat="50.33567540" lon="3.05689270"><ele>22.247559</ele><time>2009-10-04T08:06:49Z</time></trkpt>
<trkpt lat="50.33472440" lon="3.05794750"><ele>22.728271</ele><time>2009-10-04T08:07:02Z</time></trkpt>
<trkpt lat="50.33391920" lon="3.05884070"><ele>23.689575</ele><time>2009-10-04T08:07:14Z</time></trkpt>
<trkpt lat="50.33321400" lon="3.05962300"><ele>24.170288</ele><time>2009-10-04T08:07:25Z</time></trkpt>
<trkpt lat="50.33233860" lon="3.06059400"><ele>24.651001</ele><time>2009-10-04T08:07:39Z</time></trkpt>
<trkpt lat="50.33187820" lon="3.06105600"><ele>24.651001</ele><time>2009-10-04T08:07:47Z</time></trkpt>
<trkpt lat="50.33124850" lon="3.06172860"><ele>24.651001</ele><time>2009-10-04T08:07:59Z</time></trkpt>
<trkpt lat="50.33081410" lon="3.06224120"><ele>24.170288</ele><time>2009-10-04T08:08:07Z</time></trkpt>
<trkpt lat="50.33006930" lon="3.06313850"><ele>24.651001</ele><time>2009-10-04T08:08:18Z</time></trkpt>
<trkpt lat="50.32948610" lon="3.06377210"><ele>25.131714</ele><time>2009-10-04T08:08:29Z</time></trkpt>
<trkpt lat="50.32880280" lon="3.06451400"><ele>24.170288</ele><time>2009-10-04T08:08:40Z</time></trkpt>
<trkpt lat="50.32816900" lon="3.06520260"><ele>24.651001</ele><time>2009-10-04T08:08:51Z</time></trkpt>
<trkpt lat="50.32738310" lon="3.06605600"><ele>24.170288</ele><time>2009-10-04T08:09:04Z</time></trkpt>
<trkpt lat="50.32725970" lon="3.06619000"><ele>24.651001</ele><time>2009-10-04T08:09:06Z</time></trkpt>
<trkpt lat="50.32707470" lon="3.06639090"><ele>24.651001</ele><time>2009-10-04T08:09:09Z</time></trkpt>
<trkpt lat="50.32602730" lon="3.06760410"><ele>24.651001</ele><time>2009-10-04T08:09:27Z</time></trkpt>
<trkpt lat="50.32516830" lon="3.06854610"><ele>24.170288</ele><time>2009-10-04T08:09:41Z</time></trkpt>
<trkpt lat="50.32424250" lon="3.06955980"><ele>24.170288</ele><time>2009-10-04T08:09:56Z</time></trkpt>
<trkpt lat="50.32341020" lon="3.07048260"><ele>24.170288</ele><time>2009-10-04T08:10:09Z</time></trkpt>
<trkpt lat="50.32258510" lon="3.07139760"><ele>25.131714</ele><time>2009-10-04T08:10:24Z</time></trkpt>
<trkpt lat="50.32232340" lon="3.07172620"><ele>24.651001</ele><time>2009-10-04T08:10:29Z</time></trkpt>
<trkpt lat="50.32216130" lon="3.07193060"><ele>24.651001</ele><time>2009-10-04T08:10:32Z</time></trkpt>
<trkpt lat="50.32206170" lon="3.07204710"><ele>25.612305</ele><time>2009-10-04T08:10:34Z</time></trkpt>
<trkpt lat="50.32194330" lon="3.07214470"><ele>25.612305</ele><time>2009-10-04T08:10:36Z</time></trkpt>
<trkpt lat="50.32175420" lon="3.07230040"><ele>24.170288</ele><time>2009-10-04T08:10:39Z</time></trkpt>
<trkpt lat="50.32139870" lon="3.07270920"><ele>25.131714</ele><time>2009-10-04T08:10:45Z</time></trkpt>
<trkpt lat="50.32110260" lon="3.07301730"><ele>25.131714</ele><time>2009-10-04T08:10:51Z</time></trkpt>
<trkpt lat="50.32022340" lon="3.07399180"><ele>23.689575</ele><time>2009-10-04T08:11:06Z</time></trkpt>
<trkpt lat="50.31939930" lon="3.07491040"><ele>24.170288</ele><time>2009-10-04T08:11:20Z</time></trkpt>
<trkpt lat="50.31873970" lon="3.07565640"><ele>24.170288</ele><time>2009-10-04T08:11:31Z</time></trkpt>
<trkpt lat="50.31799220" lon="3.07646360"><ele>24.651001</ele><time>2009-10-04T08:11:44Z</time></trkpt>
<trkpt lat="50.31788360" lon="3.07656930"><ele>24.170288</ele><time>2009-10-04T08:11:46Z</time></trkpt>
<trkpt lat="50.31698840" lon="3.07727580"><ele>24.170288</ele><time>2009-10-04T08:12:00Z</time></trkpt>
<trkpt lat="50.31613220" lon="3.07825000"><ele>24.170288</ele><time>2009-10-04T08:12:14Z</time></trkpt>
<trkpt lat="50.31533740" lon="3.07901370"><ele>27.534912</ele><time>2009-10-04T08:12:26Z</time></trkpt>
<trkpt lat="50.31477290" lon="3.07961810"><ele>29.45752</ele><time>2009-10-04T08:12:36Z</time></trkpt>
<trkpt lat="50.31467190" lon="3.07974630"><ele>29.45752</ele><time>2009-10-04T08:12:38Z</time></trkpt>
<trkpt lat="50.31401400" lon="3.08059220"><ele>28.976929</ele><time>2009-10-04T08:12:51Z</time></trkpt>
<trkpt lat="50.31324930" lon="3.08142910"><ele>28.496216</ele><time>2009-10-04T08:13:04Z</time></trkpt>
<trkpt lat="50.31279100" lon="3.08196530"><ele>28.976929</ele><time>2009-10-04T08:13:12Z</time></trkpt>
<trkpt lat="50.31214390" lon="3.08293780"><ele>28.496216</ele><time>2009-10-04T08:13:24Z</time></trkpt>
<trkpt lat="50.31141870" lon="3.08371990"><ele>28.496216</ele><time>2009-10-04T08:13:36Z</time></trkpt>
<trkpt lat="50.31122700" lon="3.08393830"><ele>29.45752</ele><time>2009-10-04T08:13:40Z</time></trkpt>
<trkpt lat="50.31096030" lon="3.08380930"><ele>27.054321</ele><time>2009-10-04T08:13:48Z</time></trkpt>
<trkpt lat="50.31069450" lon="3.08326910"><ele>26.573608</ele><time>2009-10-04T08:13:55Z</time></trkpt>
<trkpt lat="50.31060220" lon="3.08303830"><ele>27.534912</ele><time>2009-10-04T08:13:59Z</time></trkpt>
<trkpt lat="50.31060220" lon="3.08303830"><ele>27.054321</ele><time>2009-10-04T08:14:01Z</time></trkpt>
<trkpt lat="50.31006080" lon="3.08208350"><ele>28.976929</ele><time>2009-10-04T08:14:13Z</time></trkpt>
<trkpt lat="50.30952010" lon="3.08120200"><ele>29.45752</ele><time>2009-10-04T08:14:28Z</time></trkpt>
<trkpt lat="50.30934440" lon="3.08091550"><ele>28.976929</ele><time>2009-10-04T08:14:33Z</time></trkpt>
<trkpt lat="50.30875930" lon="3.08000250"><ele>31.380127</ele><time>2009-10-04T08:14:49Z</time></trkpt>
<trkpt lat="50.30868600" lon="3.07989460"><ele>31.380127</ele><time>2009-10-04T08:14:51Z</time></trkpt>
<trkpt lat="50.30852060" lon="3.07967250"><ele>30.418823</ele><time>2009-10-04T08:14:55Z</time></trkpt>
<trkpt lat="50.30836560" lon="3.07946850"><ele>30.418823</ele><time>2009-10-04T08:14:59Z</time></trkpt>
<trkpt lat="50.30821970" lon="3.07924150"><ele>31.860718</ele><time>2009-10-04T08:15:03Z</time></trkpt>
<trkpt lat="50.30789820" lon="3.07872110"><ele>31.380127</ele><time>2009-10-04T08:15:12Z</time></trkpt>
<trkpt lat="50.30755400" lon="3.07809610"><ele>31.380127</ele><time>2009-10-04T08:15:23Z</time></trkpt>
<trkpt lat="50.30745170" lon="3.07783110"><ele>31.860718</ele><time>2009-10-04T08:15:27Z</time></trkpt>
<trkpt lat="50.30724160" lon="3.07689560"><ele>32.341553</ele><time>2009-10-04T08:15:40Z</time></trkpt>
<trkpt lat="50.30692160" lon="3.07551520"><ele>32.341553</ele><time>2009-10-04T08:15:58Z</time></trkpt>
<trkpt lat="50.30679060" lon="3.07506760"><ele>31.860718</ele><time>2009-10-04T08:16:04Z</time></trkpt>
<trkpt lat="50.30672340" lon="3.07487720"><ele>32.341553</ele><time>2009-10-04T08:16:07Z</time></trkpt>
<trkpt lat="50.30635600" lon="3.07435040"><ele>32.341553</ele><time>2009-10-04T08:16:16Z</time></trkpt>
<trkpt lat="50.30612740" lon="3.07413750"><ele>32.822266</ele><time>2009-10-04T08:16:21Z</time></trkpt>
<trkpt lat="50.30529900" lon="3.07379590"><ele>32.341553</ele><time>2009-10-04T08:16:37Z</time></trkpt>
<trkpt lat="50.30504720" lon="3.07370190"><ele>33.302856</ele><time>2009-10-04T08:16:42Z</time></trkpt>
<trkpt lat="50.30446530" lon="3.07338240"><ele>34.744873</ele><time>2009-10-04T08:16:58Z</time></trkpt>
<trkpt lat="50.30393510" lon="3.07292770"><ele>36.186768</ele><time>2009-10-04T08:17:12Z</time></trkpt>
<trkpt lat="50.30386490" lon="3.07286760"><ele>36.186768</ele><time>2009-10-04T08:17:14Z</time></trkpt>
<trkpt lat="50.30329930" lon="3.07242430"><ele>37.148071</ele><time>2009-10-04T08:17:27Z</time></trkpt>
<trkpt lat="50.30288540" lon="3.07209060"><ele>40.512817</ele><time>2009-10-04T08:17:37Z</time></trkpt>
<trkpt lat="50.30239430" lon="3.07168410"><ele>42.916016</ele><time>2009-10-04T08:17:48Z</time></trkpt>
<trkpt lat="50.30223890" lon="3.07162760"><ele>44.358032</ele><time>2009-10-04T08:17:51Z</time></trkpt>
<trkpt lat="50.30201320" lon="3.07159130"><ele>46.28064</ele><time>2009-10-04T08:17:55Z</time></trkpt>
<trkpt lat="50.30175600" lon="3.07154980"><ele>46.76123</ele><time>2009-10-04T08:18:00Z</time></trkpt>
<trkpt lat="50.30138510" lon="3.07137340"><ele>49.164551</ele><time>2009-10-04T08:18:07Z</time></trkpt>
<trkpt lat="50.30122560" lon="3.07120740"><ele>49.164551</ele><time>2009-10-04T08:18:11Z</time></trkpt>
<trkpt lat="50.30116630" lon="3.07107700"><ele>46.76123</ele><time>2009-10-04T08:18:13Z</time></trkpt>
<trkpt lat="50.30106010" lon="3.07090020"><ele>47.241821</ele><time>2009-10-04T08:18:16Z</time></trkpt>
<trkpt lat="50.30078870" lon="3.07058150"><ele>45.319214</ele><time>2009-10-04T08:18:22Z</time></trkpt>
<trkpt lat="50.30017380" lon="3.07059290"><ele>45.319214</ele><time>2009-10-04T08:18:34Z</time></trkpt>
<trkpt lat="50.30000470" lon="3.07039300"><ele>45.319214</ele><time>2009-10-04T08:18:37Z</time></trkpt>
<trkpt lat="50.29910720" lon="3.07033910"><ele>45.319214</ele><time>2009-10-04T08:18:54Z</time></trkpt>
<trkpt lat="50.29859070" lon="3.07031400"><ele>46.76123</ele><time>2009-10-04T08:19:03Z</time></trkpt>
<trkpt lat="50.29812450" lon="3.07024090"><ele>48.68396</ele><time>2009-10-04T08:19:11Z</time></trkpt>
<trkpt lat="50.29778920" lon="3.07018800"><ele>50.125977</ele><time>2009-10-04T08:19:17Z</time></trkpt>
<trkpt lat="50.29755710" lon="3.07003610"><ele>51.567871</ele><time>2009-10-04T08:19:22Z</time></trkpt>
<trkpt lat="50.29742150" lon="3.06985840"><ele>52.048584</ele><time>2009-10-04T08:19:26Z</time></trkpt>
<trkpt lat="50.29734940" lon="3.06977440"><ele>51.567871</ele><time>2009-10-04T08:19:28Z</time></trkpt>
<trkpt lat="50.29691920" lon="3.06953290"><ele>48.203369</ele><time>2009-10-04T08:19:36Z</time></trkpt>
<trkpt lat="50.29661180" lon="3.06939130"><ele>44.358032</ele><time>2009-10-04T08:19:41Z</time></trkpt>
<trkpt lat="50.29661180" lon="3.06939130"><ele>43.877319</ele><time>2009-10-04T08:19:42Z</time></trkpt>
<trkpt lat="50.29625140" lon="3.06919710"><ele>40.512817</ele><time>2009-10-04T08:19:45Z</time></trkpt>
<trkpt lat="50.29518240" lon="3.06867970"><ele>39.070679</ele><time>2009-10-04T08:19:56Z</time></trkpt>
<trkpt lat="50.29417170" lon="3.06869360"><ele>39.070679</ele><time>2009-10-04T08:20:08Z</time></trkpt>
<trkpt lat="50.29308140" lon="3.06875560"><ele>40.512817</ele><time>2009-10-04T08:20:24Z</time></trkpt>
<trkpt lat="50.29203690" lon="3.06879500"><ele>40.032104</ele><time>2009-10-04T08:20:40Z</time></trkpt>
<trkpt lat="50.29116500" lon="3.06884990"><ele>41.473999</ele><time>2009-10-04T08:20:56Z</time></trkpt>
<trkpt lat="50.29028400" lon="3.06890540"><ele>41.473999</ele><time>2009-10-04T08:21:13Z</time></trkpt>
<trkpt lat="50.29003480" lon="3.06892110"><ele>40.993408</ele><time>2009-10-04T08:21:18Z</time></trkpt>
<trkpt lat="50.28973030" lon="3.06894030"><ele>40.032104</ele><time>2009-10-04T08:21:24Z</time></trkpt>
<trkpt lat="50.28964200" lon="3.06894810"><ele>41.473999</ele><time>2009-10-04T08:21:26Z</time></trkpt>
<trkpt lat="50.28892650" lon="3.06916520"><ele>40.512817</ele><time>2009-10-04T08:21:41Z</time></trkpt>
<trkpt lat="50.28808950" lon="3.06945460"><ele>41.473999</ele><time>2009-10-04T08:21:58Z</time></trkpt>
<trkpt lat="50.28748700" lon="3.06965190"><ele>40.032104</ele><time>2009-10-04T08:22:08Z</time></trkpt>
<trkpt lat="50.28716090" lon="3.06975890"><ele>39.070679</ele><time>2009-10-04T08:22:13Z</time></trkpt>
<trkpt lat="50.28616440" lon="3.07008530"><ele>40.032104</ele><time>2009-10-04T08:22:28Z</time></trkpt>
<trkpt lat="50.28610290" lon="3.07010550"><ele>40.512817</ele><time>2009-10-04T08:22:29Z</time></trkpt>
<trkpt lat="50.28518050" lon="3.07043300"><ele>40.512817</ele><time>2009-10-04T08:22:45Z</time></trkpt>
<trkpt lat="50.28434330" lon="3.07073350"><ele>40.512817</ele><time>2009-10-04T08:23:00Z</time></trkpt>
<trkpt lat="50.28393260" lon="3.07084430"><ele>40.993408</ele><time>2009-10-04T08:23:07Z</time></trkpt>
<trkpt lat="50.28322350" lon="3.07089940"><ele>39.070679</ele><time>2009-10-04T08:23:19Z</time></trkpt>
<trkpt lat="50.28300760" lon="3.07091470"><ele>37.628662</ele><time>2009-10-04T08:23:24Z</time></trkpt>
<trkpt lat="50.28236970" lon="3.07173380"><ele>34.744873</ele><time>2009-10-04T08:23:33Z</time></trkpt>
<trkpt lat="50.28162650" lon="3.07275840"><ele>35.225464</ele><time>2009-10-04T08:23:46Z</time></trkpt>
<trkpt lat="50.28104940" lon="3.07363600"><ele>33.783447</ele><time>2009-10-04T08:23:58Z</time></trkpt>
<trkpt lat="50.28070450" lon="3.07390920"><ele>33.783447</ele><time>2009-10-04T08:24:05Z</time></trkpt>
<trkpt lat="50.28054510" lon="3.07409400"><ele>32.341553</ele><time>2009-10-04T08:24:08Z</time></trkpt>
<trkpt lat="50.27994380" lon="3.07491570"><ele>31.380127</ele><time>2009-10-04T08:24:19Z</time></trkpt>
<trkpt lat="50.27945010" lon="3.07572680"><ele>30.899536</ele><time>2009-10-04T08:24:29Z</time></trkpt>
<trkpt lat="50.27907130" lon="3.07573610"><ele>31.860718</ele><time>2009-10-04T08:24:36Z</time></trkpt>
<trkpt lat="50.27863440" lon="3.07500060"><ele>32.822266</ele><time>2009-10-04T08:24:46Z</time></trkpt>
<trkpt lat="50.27846400" lon="3.07499910"><ele>32.341553</ele><time>2009-10-04T08:24:50Z</time></trkpt>
<trkpt lat="50.27766250" lon="3.07588870"><ele>31.380127</ele><time>2009-10-04T08:25:04Z</time></trkpt>
<trkpt lat="50.27761550" lon="3.07592900"><ele>30.899536</ele><time>2009-10-04T08:25:05Z</time></trkpt>
<trkpt lat="50.27752450" lon="3.07589670"><ele>30.899536</ele><time>2009-10-04T08:25:09Z</time></trkpt>
<trkpt lat="50.27743390" lon="3.07541510"><ele>28.015503</ele><time>2009-10-04T08:25:15Z</time></trkpt>
<trkpt lat="50.27737050" lon="3.07430460"><ele>29.45752</ele><time>2009-10-04T08:25:26Z</time></trkpt>
<trkpt lat="50.27735480" lon="3.07417100"><ele>30.418823</ele><time>2009-10-04T08:25:28Z</time></trkpt>
<trkpt lat="50.27734360" lon="3.07407610"><ele>30.899536</ele><time>2009-10-04T08:25:30Z</time></trkpt>
<trkpt lat="50.27713620" lon="3.07377650"><ele>28.496216</ele><time>2009-10-04T08:25:35Z</time></trkpt>
<trkpt lat="50.27700450" lon="3.07366510"><ele>27.534912</ele><time>2009-10-04T08:25:37Z</time></trkpt>
<trkpt lat="50.27622390" lon="3.07327190"><ele>26.573608</ele><time>2009-10-04T08:25:48Z</time></trkpt>
<trkpt lat="50.27609770" lon="3.07314570"><ele>26.573608</ele><time>2009-10-04T08:25:50Z</time></trkpt>
<trkpt lat="50.27534410" lon="3.07215300"><ele>26.573608</ele><time>2009-10-04T08:26:04Z</time></trkpt>
<trkpt lat="50.27469380" lon="3.07151350"><ele>26.573608</ele><time>2009-10-04T08:26:15Z</time></trkpt>
<trkpt lat="50.27451630" lon="3.07124210"><ele>26.573608</ele><time>2009-10-04T08:26:19Z</time></trkpt>
<trkpt lat="50.27423940" lon="3.07064210"><ele>27.534912</ele><time>2009-10-04T08:26:26Z</time></trkpt>
<trkpt lat="50.27421000" lon="3.07057140"><ele>28.976929</ele><time>2009-10-04T08:26:29Z</time></trkpt>
<trkpt lat="50.27409100" lon="3.07032360"><ele>28.976929</ele><time>2009-10-04T08:26:36Z</time></trkpt>
<trkpt lat="50.27384440" lon="3.06971960"><ele>28.976929</ele><time>2009-10-04T08:26:47Z</time></trkpt>
<trkpt lat="50.27363580" lon="3.06907260"><ele>28.976929</ele><time>2009-10-04T08:26:58Z</time></trkpt>
<trkpt lat="50.27354670" lon="3.06866090"><ele>28.976929</ele><time>2009-10-04T08:27:09Z</time></trkpt>
<trkpt lat="50.27355390" lon="3.06833940"><ele>28.496216</ele><time>2009-10-04T08:27:14Z</time></trkpt>
<trkpt lat="50.27356580" lon="3.06775610"><ele>28.976929</ele><time>2009-10-04T08:27:24Z</time></trkpt>
<trkpt lat="50.27355870" lon="3.06727210"><ele>28.496216</ele><time>2009-10-04T08:27:32Z</time></trkpt>
<trkpt lat="50.27355530" lon="3.06704450"><ele>28.976929</ele><time>2009-10-04T08:27:36Z</time></trkpt>
<trkpt lat="50.27354620" lon="3.06642250"><ele>29.45752</ele><time>2009-10-04T08:27:47Z</time></trkpt>
<trkpt lat="50.27324200" lon="3.06582430"><ele>29.45752</ele><time>2009-10-04T08:27:59Z</time></trkpt>
<trkpt lat="50.27304250" lon="3.06531220"><ele>30.418823</ele><time>2009-10-04T08:28:09Z</time></trkpt>
<trkpt lat="50.27287810" lon="3.06484810"><ele>30.899536</ele><time>2009-10-04T08:28:19Z</time></trkpt>
<trkpt lat="50.27278160" lon="3.06456980"><ele>29.93811</ele><time>2009-10-04T08:28:28Z</time></trkpt>
<trkpt lat="50.27263410" lon="3.06397010"><ele>30.418823</ele><time>2009-10-04T08:28:39Z</time></trkpt>
<trkpt lat="50.27258360" lon="3.06366670"><ele>29.45752</ele><time>2009-10-04T08:28:49Z</time></trkpt>
<trkpt lat="50.27253630" lon="3.06346890"><ele>29.93811</ele><time>2009-10-04T08:28:59Z</time></trkpt>
<trkpt lat="50.27253630" lon="3.06346890"><ele>27.054321</ele><time>2009-10-04T08:36:43Z</time></trkpt>
<trkpt lat="50.27253630" lon="3.06346890"><ele>28.015503</ele><time>2009-10-04T08:39:10Z</time></trkpt>
<trkpt lat="50.27256190" lon="3.06311250"><ele>27.054321</ele><time>2009-10-04T08:39:16Z</time></trkpt>
<trkpt lat="50.27248400" lon="3.06267330"><ele>27.054321</ele><time>2009-10-04T08:39:22Z</time></trkpt>
<trkpt lat="50.27244650" lon="3.06237900"><ele>27.054321</ele><time>2009-10-04T08:39:26Z</time></trkpt>
<trkpt lat="50.27243700" lon="3.06223570"><ele>27.534912</ele><time>2009-10-04T08:39:28Z</time></trkpt>
<trkpt lat="50.27235870" lon="3.06212130"><ele>27.054321</ele><time>2009-10-04T08:39:32Z</time></trkpt>
<trkpt lat="50.27197410" lon="3.06207840"><ele>25.612305</ele><time>2009-10-04T08:39:40Z</time></trkpt>
<trkpt lat="50.27157070" lon="3.06224580"><ele>26.092896</ele><time>2009-10-04T08:39:48Z</time></trkpt>
<trkpt lat="50.27157070" lon="3.06224580"><ele>25.612305</ele><time>2009-10-04T08:39:51Z</time></trkpt>
<trkpt lat="50.27131390" lon="3.06324950"><ele>26.573608</ele><time>2009-10-04T08:39:59Z</time></trkpt>
<trkpt lat="50.27113640" lon="3.06446750"><ele>26.092896</ele><time>2009-10-04T08:40:13Z</time></trkpt>
<trkpt lat="50.27111240" lon="3.06466440"><ele>26.092896</ele><time>2009-10-04T08:40:16Z</time></trkpt>
<trkpt lat="50.27098210" lon="3.06551580"><ele>27.054321</ele><time>2009-10-04T08:40:30Z</time></trkpt>
<trkpt lat="50.27089360" lon="3.06611380"><ele>27.534912</ele><time>2009-10-04T08:40:41Z</time></trkpt>
<trkpt lat="50.27077300" lon="3.06704970"><ele>27.054321</ele><time>2009-10-04T08:40:57Z</time></trkpt>
<trkpt lat="50.27066670" lon="3.06779360"><ele>27.054321</ele><time>2009-10-04T08:41:10Z</time></trkpt>
<trkpt lat="50.27053950" lon="3.06861130"><ele>27.534912</ele><time>2009-10-04T08:41:24Z</time></trkpt>
<trkpt lat="50.27053230" lon="3.06926950"><ele>27.054321</ele><time>2009-10-04T08:41:36Z</time></trkpt>
<trkpt lat="50.27052380" lon="3.07004730"><ele>27.054321</ele><time>2009-10-04T08:41:50Z</time></trkpt>
<trkpt lat="50.27048920" lon="3.07076960"><ele>26.573608</ele><time>2009-10-04T08:42:02Z</time></trkpt>
<trkpt lat="50.27041680" lon="3.07150850"><ele>27.054321</ele><time>2009-10-04T08:42:14Z</time></trkpt>
<trkpt lat="50.27030470" lon="3.07185890"><ele>27.054321</ele><time>2009-10-04T08:42:25Z</time></trkpt>
<trkpt lat="50.27026180" lon="3.07253700"><ele>26.573608</ele><time>2009-10-04T08:42:35Z</time></trkpt>
<trkpt lat="50.27018250" lon="3.07310400"><ele>26.092896</ele><time>2009-10-04T08:42:44Z</time></trkpt>
<trkpt lat="50.27011890" lon="3.07351770"><ele>25.612305</ele><time>2009-10-04T08:42:49Z</time></trkpt>
<trkpt lat="50.26997890" lon="3.07399020"><ele>26.092896</ele><time>2009-10-04T08:42:55Z</time></trkpt>
<trkpt lat="50.26995360" lon="3.07405510"><ele>27.534912</ele><time>2009-10-04T08:43:02Z</time></trkpt>
<trkpt lat="50.26995360" lon="3.07405510"><ele>27.534912</ele><time>2009-10-04T08:43:08Z</time></trkpt>
<trkpt lat="50.26991840" lon="3.07424070"><ele>27.054321</ele><time>2009-10-04T08:43:12Z</time></trkpt>
<trkpt lat="50.26991840" lon="3.07475570"><ele>27.054321</ele><time>2009-10-04T08:43:20Z</time></trkpt>
<trkpt lat="50.26995650" lon="3.07487960"><ele>27.054321</ele><time>2009-10-04T08:43:22Z</time></trkpt>
<trkpt lat="50.27013030" lon="3.07542840"><ele>26.092896</ele><time>2009-10-04T08:43:29Z</time></trkpt>
<trkpt lat="50.27018600" lon="3.07561780"><ele>25.612305</ele><time>2009-10-04T08:43:31Z</time></trkpt>
<trkpt lat="50.27022210" lon="3.07578490"><ele>25.612305</ele><time>2009-10-04T08:43:33Z</time></trkpt>
<trkpt lat="50.27031890" lon="3.07623260"><ele>25.131714</ele><time>2009-10-04T08:43:38Z</time></trkpt>
<trkpt lat="50.27032660" lon="3.07669550"><ele>25.131714</ele><time>2009-10-04T08:43:43Z</time></trkpt>
<trkpt lat="50.27028360" lon="3.07706840"><ele>25.131714</ele><time>2009-10-04T08:43:47Z</time></trkpt>
<trkpt lat="50.27021500" lon="3.07746500"><ele>25.612305</ele><time>2009-10-04T08:43:51Z</time></trkpt>
<trkpt lat="50.27020190" lon="3.07783990"><ele>26.092896</ele><time>2009-10-04T08:43:55Z</time></trkpt>
<trkpt lat="50.27021550" lon="3.07801660"><ele>26.092896</ele><time>2009-10-04T08:43:57Z</time></trkpt>
<trkpt lat="50.27015840" lon="3.07838270"><ele>25.612305</ele><time>2009-10-04T08:44:01Z</time></trkpt>
<trkpt lat="50.27002820" lon="3.07886620"><ele>26.092896</ele><time>2009-10-04T08:44:07Z</time></trkpt>
<trkpt lat="50.27002710" lon="3.07939980"><ele>26.092896</ele><time>2009-10-04T08:44:13Z</time></trkpt>
<trkpt lat="50.27010760" lon="3.08073420"><ele>26.092896</ele><time>2009-10-04T08:44:27Z</time></trkpt>
<trkpt lat="50.27012240" lon="3.08108900"><ele>26.092896</ele><time>2009-10-04T08:44:31Z</time></trkpt>
<trkpt lat="50.27012950" lon="3.08125990"><ele>26.092896</ele><time>2009-10-04T08:44:33Z</time></trkpt>
<trkpt lat="50.27021500" lon="3.08205870"><ele>25.612305</ele><time>2009-10-04T08:44:42Z</time></trkpt>
<trkpt lat="50.27020220" lon="3.08222590"><ele>26.092896</ele><time>2009-10-04T08:44:44Z</time></trkpt>
<trkpt lat="50.27028540" lon="3.08311000"><ele>26.573608</ele><time>2009-10-04T08:44:55Z</time></trkpt>
<trkpt lat="50.27029790" lon="3.08432090"><ele>26.092896</ele><time>2009-10-04T08:45:09Z</time></trkpt>
<trkpt lat="50.27029060" lon="3.08456910"><ele>26.092896</ele><time>2009-10-04T08:45:12Z</time></trkpt>
<trkpt lat="50.27033800" lon="3.08579840"><ele>25.612305</ele><time>2009-10-04T08:45:26Z</time></trkpt>
<trkpt lat="50.27036790" lon="3.08615880"><ele>25.612305</ele><time>2009-10-04T08:45:30Z</time></trkpt>
<trkpt lat="50.27047320" lon="3.08758850"><ele>26.092896</ele><time>2009-10-04T08:45:45Z</time></trkpt>
<trkpt lat="50.27051730" lon="3.08900080"><ele>26.092896</ele><time>2009-10-04T08:46:00Z</time></trkpt>
<trkpt lat="50.27050410" lon="3.08909560"><ele>25.612305</ele><time>2009-10-04T08:46:01Z</time></trkpt>
<trkpt lat="50.27043030" lon="3.08967040"><ele>25.612305</ele><time>2009-10-04T08:46:07Z</time></trkpt>
<trkpt lat="50.27037780" lon="3.09079170"><ele>26.092896</ele><time>2009-10-04T08:46:20Z</time></trkpt>
<trkpt lat="50.27022460" lon="3.09167920"><ele>27.054321</ele><time>2009-10-04T08:46:30Z</time></trkpt>
<trkpt lat="50.27021880" lon="3.09170720"><ele>26.573608</ele><time>2009-10-04T08:46:32Z</time></trkpt>
<trkpt lat="50.26968400" lon="3.09316330"><ele>25.612305</ele><time>2009-10-04T08:46:48Z</time></trkpt>
<trkpt lat="50.26938690" lon="3.09422190"><ele>25.612305</ele><time>2009-10-04T08:47:00Z</time></trkpt>
<trkpt lat="50.26905050" lon="3.09454110"><ele>24.170288</ele><time>2009-10-04T08:47:06Z</time></trkpt>
<trkpt lat="50.26811290" lon="3.09503020"><ele>22.728271</ele><time>2009-10-04T08:47:21Z</time></trkpt>
<trkpt lat="50.26782620" lon="3.09515740"><ele>25.612305</ele><time>2009-10-04T08:47:26Z</time></trkpt>
<trkpt lat="50.26768170" lon="3.09522940"><ele>25.131714</ele><time>2009-10-04T08:47:29Z</time></trkpt>
<trkpt lat="50.26707620" lon="3.09520280"><ele>26.092896</ele><time>2009-10-04T08:47:40Z</time></trkpt>
<trkpt lat="50.26682390" lon="3.09524270"><ele>25.612305</ele><time>2009-10-04T08:47:45Z</time></trkpt>
<trkpt lat="50.26639080" lon="3.09496100"><ele>26.573608</ele><time>2009-10-04T08:47:53Z</time></trkpt>
<trkpt lat="50.26623160" lon="3.09487510"><ele>26.092896</ele><time>2009-10-04T08:47:56Z</time></trkpt>
<trkpt lat="50.26514160" lon="3.09475510"><ele>26.092896</ele><time>2009-10-04T08:48:14Z</time></trkpt>
<trkpt lat="50.26477610" lon="3.09463280"><ele>25.612305</ele><time>2009-10-04T08:48:20Z</time></trkpt>
<trkpt lat="50.26453820" lon="3.09443800"><ele>24.651001</ele><time>2009-10-04T08:48:24Z</time></trkpt>
<trkpt lat="50.26418800" lon="3.09397810"><ele>25.131714</ele><time>2009-10-04T08:48:31Z</time></trkpt>
<trkpt lat="50.26374510" lon="3.09366370"><ele>26.573608</ele><time>2009-10-04T08:48:40Z</time></trkpt>
<trkpt lat="50.26370350" lon="3.09360340"><ele>26.092896</ele><time>2009-10-04T08:48:41Z</time></trkpt>
<trkpt lat="50.26357320" lon="3.09341450"><ele>27.534912</ele><time>2009-10-04T08:48:44Z</time></trkpt>
<trkpt lat="50.26348840" lon="3.09329160"><ele>26.092896</ele><time>2009-10-04T08:48:46Z</time></trkpt>
<trkpt lat="50.26328180" lon="3.09318130"><ele>27.534912</ele><time>2009-10-04T08:48:50Z</time></trkpt>
<trkpt lat="50.26283520" lon="3.09316800"><ele>26.573608</ele><time>2009-10-04T08:48:57Z</time></trkpt>
<trkpt lat="50.26248600" lon="3.09317240"><ele>25.131714</ele><time>2009-10-04T08:49:02Z</time></trkpt>
<trkpt lat="50.26147250" lon="3.09318510"><ele>26.092896</ele><time>2009-10-04T08:49:17Z</time></trkpt>
<trkpt lat="50.26056440" lon="3.09314100"><ele>27.054321</ele><time>2009-10-04T08:49:31Z</time></trkpt>
<trkpt lat="50.25982560" lon="3.09296590"><ele>25.612305</ele><time>2009-10-04T08:49:43Z</time></trkpt>
<trkpt lat="50.25919250" lon="3.09290170"><ele>26.092896</ele><time>2009-10-04T08:49:53Z</time></trkpt>
<trkpt lat="50.25863280" lon="3.09282310"><ele>25.612305</ele><time>2009-10-04T08:50:02Z</time></trkpt>
<trkpt lat="50.25836160" lon="3.09276290"><ele>25.612305</ele><time>2009-10-04T08:50:06Z</time></trkpt>
<trkpt lat="50.25786310" lon="3.09265210"><ele>26.092896</ele><time>2009-10-04T08:50:14Z</time></trkpt>
<trkpt lat="50.25754880" lon="3.09258220"><ele>26.573608</ele><time>2009-10-04T08:50:20Z</time></trkpt>
<trkpt lat="50.25715950" lon="3.09249400"><ele>26.092896</ele><time>2009-10-04T08:50:27Z</time></trkpt>
<trkpt lat="50.25659220" lon="3.09235930"><ele>26.092896</ele><time>2009-10-04T08:50:36Z</time></trkpt>
<trkpt lat="50.25592630" lon="3.09218930"><ele>26.092896</ele><time>2009-10-04T08:50:46Z</time></trkpt>
<trkpt lat="50.25579640" lon="3.09215780"><ele>26.573608</ele><time>2009-10-04T08:50:48Z</time></trkpt>
<trkpt lat="50.25541220" lon="3.09215780"><ele>26.092896</ele><time>2009-10-04T08:50:54Z</time></trkpt>
<trkpt lat="50.25494060" lon="3.09220810"><ele>26.092896</ele><time>2009-10-04T08:51:01Z</time></trkpt>
<trkpt lat="50.25429000" lon="3.09213750"><ele>27.054321</ele><time>2009-10-04T08:51:11Z</time></trkpt>
<trkpt lat="50.25350270" lon="3.09198880"><ele>26.573608</ele><time>2009-10-04T08:51:23Z</time></trkpt>
<trkpt lat="50.25293960" lon="3.09187470"><ele>26.573608</ele><time>2009-10-04T08:51:31Z</time></trkpt>
<trkpt lat="50.25266800" lon="3.09181960"><ele>26.573608</ele><time>2009-10-04T08:51:35Z</time></trkpt>
<trkpt lat="50.25193150" lon="3.09167960"><ele>28.496216</ele><time>2009-10-04T08:51:47Z</time></trkpt>
<trkpt lat="50.25154100" lon="3.09160770"><ele>28.976929</ele><time>2009-10-04T08:51:55Z</time></trkpt>
<trkpt lat="50.25131200" lon="3.09156540"><ele>28.976929</ele><time>2009-10-04T08:52:00Z</time></trkpt>
<trkpt lat="50.25110380" lon="3.09152720"><ele>28.015503</ele><time>2009-10-04T08:52:04Z</time></trkpt>
<trkpt lat="50.25083270" lon="3.09147720"><ele>28.976929</ele><time>2009-10-04T08:52:10Z</time></trkpt>
<trkpt lat="50.25036560" lon="3.09139110"><ele>28.496216</ele><time>2009-10-04T08:52:21Z</time></trkpt>
<trkpt lat="50.25002100" lon="3.09132760"><ele>28.976929</ele><time>2009-10-04T08:52:29Z</time></trkpt>
<trkpt lat="50.24991830" lon="3.09182220"><ele>28.015503</ele><time>2009-10-04T08:52:36Z</time></trkpt>
<trkpt lat="50.24987310" lon="3.09285130"><ele>26.092896</ele><time>2009-10-04T08:52:45Z</time></trkpt>
<trkpt lat="50.24982430" lon="3.09439220"><ele>26.573608</ele><time>2009-10-04T08:52:57Z</time></trkpt>
<trkpt lat="50.24981490" lon="3.09473540"><ele>27.054321</ele><time>2009-10-04T08:53:00Z</time></trkpt>
<trkpt lat="50.24966010" lon="3.09523800"><ele>27.054321</ele><time>2009-10-04T08:53:05Z</time></trkpt>
<trkpt lat="50.24944780" lon="3.09641770"><ele>29.45752</ele><time>2009-10-04T08:53:17Z</time></trkpt>
<trkpt lat="50.24944780" lon="3.09670830"><ele>30.418823</ele><time>2009-10-04T08:53:20Z</time></trkpt>
<trkpt lat="50.24945700" lon="3.09752530"><ele>33.302856</ele><time>2009-10-04T08:53:30Z</time></trkpt>
<trkpt lat="50.24946930" lon="3.09809880"><ele>36.66748</ele><time>2009-10-04T08:53:39Z</time></trkpt>
<trkpt lat="50.24946930" lon="3.09810160"><ele>36.66748</ele><time>2009-10-04T08:53:40Z</time></trkpt>
<trkpt lat="50.24921980" lon="3.09815630"><ele>36.66748</ele><time>2009-10-04T08:53:46Z</time></trkpt>
<trkpt lat="50.24898940" lon="3.09864650"><ele>38.109375</ele><time>2009-10-04T08:53:54Z</time></trkpt>
<trkpt lat="50.24888240" lon="3.09994780"><ele>36.186768</ele><time>2009-10-04T08:54:09Z</time></trkpt>
<trkpt lat="50.24884300" lon="3.10020780"><ele>36.186768</ele><time>2009-10-04T08:54:12Z</time></trkpt>
<trkpt lat="50.24893840" lon="3.10027500"><ele>35.225464</ele><time>2009-10-04T08:54:16Z</time></trkpt>
<trkpt lat="50.24913150" lon="3.10028570"><ele>33.302856</ele><time>2009-10-04T08:54:19Z</time></trkpt>
<trkpt lat="50.24927620" lon="3.10029370"><ele>31.860718</ele><time>2009-10-04T08:54:21Z</time></trkpt>
<trkpt lat="50.25023660" lon="3.10034460"><ele>30.418823</ele><time>2009-10-04T08:54:33Z</time></trkpt>
<trkpt lat="50.25063730" lon="3.10039830"><ele>29.93811</ele><time>2009-10-04T08:54:38Z</time></trkpt>
<trkpt lat="50.25122360" lon="3.10055240"><ele>31.860718</ele><time>2009-10-04T08:54:46Z</time></trkpt>
<trkpt lat="50.25156690" lon="3.10066530"><ele>31.380127</ele><time>2009-10-04T08:54:51Z</time></trkpt>
<trkpt lat="50.25257270" lon="3.10099590"><ele>31.380127</ele><time>2009-10-04T08:55:06Z</time></trkpt>
<trkpt lat="50.25284210" lon="3.10106900"><ele>32.822266</ele><time>2009-10-04T08:55:10Z</time></trkpt>
<trkpt lat="50.25390340" lon="3.10134320"><ele>32.341553</ele><time>2009-10-04T08:55:25Z</time></trkpt>
<trkpt lat="50.25490820" lon="3.10170880"><ele>31.860718</ele><time>2009-10-04T08:55:40Z</time></trkpt>
<trkpt lat="50.25576530" lon="3.10203190"><ele>30.899536</ele><time>2009-10-04T08:55:53Z</time></trkpt>
<trkpt lat="50.25640400" lon="3.10228280"><ele>31.380127</ele><time>2009-10-04T08:56:03Z</time></trkpt>
<trkpt lat="50.25674890" lon="3.10213210"><ele>30.899536</ele><time>2009-10-04T08:56:09Z</time></trkpt>
<trkpt lat="50.25720520" lon="3.10179760"><ele>32.341553</ele><time>2009-10-04T08:56:18Z</time></trkpt>
<trkpt lat="50.25741160" lon="3.10174130"><ele>31.860718</ele><time>2009-10-04T08:56:22Z</time></trkpt>
<trkpt lat="50.25814690" lon="3.10176620"><ele>34.744873</ele><time>2009-10-04T08:56:37Z</time></trkpt>
<trkpt lat="50.25861400" lon="3.10177090"><ele>36.186768</ele><time>2009-10-04T08:56:47Z</time></trkpt>
<trkpt lat="50.25925150" lon="3.10177090"><ele>37.628662</ele><time>2009-10-04T08:57:00Z</time></trkpt>
<trkpt lat="50.25944740" lon="3.10180950"><ele>37.628662</ele><time>2009-10-04T08:57:04Z</time></trkpt>
<trkpt lat="50.25960050" lon="3.10184000"><ele>37.148071</ele><time>2009-10-04T08:57:07Z</time></trkpt>
<trkpt lat="50.25975150" lon="3.10187020"><ele>37.148071</ele><time>2009-10-04T08:57:10Z</time></trkpt>
<trkpt lat="50.26001050" lon="3.10219360"><ele>38.109375</ele><time>2009-10-04T08:57:16Z</time></trkpt>
<trkpt lat="50.26010000" lon="3.10237500"><ele>38.590088</ele><time>2009-10-04T08:57:19Z</time></trkpt>
<trkpt lat="50.26054090" lon="3.10326980"><ele>39.070679</ele><time>2009-10-04T08:57:32Z</time></trkpt>
<trkpt lat="50.26072390" lon="3.10359840"><ele>40.032104</ele><time>2009-10-04T08:57:37Z</time></trkpt>
<trkpt lat="50.26066490" lon="3.10381560"><ele>38.590088</ele><time>2009-10-04T08:57:42Z</time></trkpt>
<trkpt lat="50.26049020" lon="3.10413520"><ele>40.993408</ele><time>2009-10-04T08:57:48Z</time></trkpt>
<trkpt lat="50.26061480" lon="3.10411760"><ele>39.55127</ele><time>2009-10-04T08:57:51Z</time></trkpt>
<trkpt lat="50.26158960" lon="3.10400850"><ele>39.070679</ele><time>2009-10-04T08:58:06Z</time></trkpt>
<trkpt lat="50.26241690" lon="3.10354180"><ele>42.435425</ele><time>2009-10-04T08:58:20Z</time></trkpt>
<trkpt lat="50.26276910" lon="3.10317070"><ele>42.435425</ele><time>2009-10-04T08:58:27Z</time></trkpt>
<trkpt lat="50.26315210" lon="3.10316260"><ele>40.993408</ele><time>2009-10-04T08:58:33Z</time></trkpt>
<trkpt lat="50.26329260" lon="3.10310240"><ele>40.032104</ele><time>2009-10-04T08:58:35Z</time></trkpt>
<trkpt lat="50.26345000" lon="3.10303500"><ele>38.590088</ele><time>2009-10-04T08:58:37Z</time></trkpt>
<trkpt lat="50.26387120" lon="3.10317930"><ele>36.186768</ele><time>2009-10-04T08:58:42Z</time></trkpt>
<trkpt lat="50.26519330" lon="3.10478350"><ele>36.66748</ele><time>2009-10-04T08:59:02Z</time></trkpt>
<trkpt lat="50.26538040" lon="3.10501050"><ele>36.66748</ele><time>2009-10-04T08:59:05Z</time></trkpt>
<trkpt lat="50.26562370" lon="3.10508210"><ele>37.628662</ele><time>2009-10-04T08:59:12Z</time></trkpt>
<trkpt lat="50.26565200" lon="3.10501080"><ele>37.148071</ele><time>2009-10-04T08:59:13Z</time></trkpt>
<trkpt lat="50.26590590" lon="3.10436810"><ele>36.66748</ele><time>2009-10-04T08:59:20Z</time></trkpt>
<trkpt lat="50.26630170" lon="3.10424490"><ele>34.744873</ele><time>2009-10-04T08:59:26Z</time></trkpt>
<trkpt lat="50.26636570" lon="3.10430600"><ele>34.744873</ele><time>2009-10-04T08:59:27Z</time></trkpt>
<trkpt lat="50.26653000" lon="3.10446320"><ele>37.148071</ele><time>2009-10-04T08:59:31Z</time></trkpt>
<trkpt lat="50.26660830" lon="3.10453810"><ele>36.186768</ele><time>2009-10-04T08:59:33Z</time></trkpt>
<trkpt lat="50.26675650" lon="3.10469320"><ele>36.66748</ele><time>2009-10-04T08:59:37Z</time></trkpt>
<trkpt lat="50.26686160" lon="3.10509710"><ele>35.706055</ele><time>2009-10-04T08:59:44Z</time></trkpt>
<trkpt lat="50.26712110" lon="3.10581100"><ele>35.225464</ele><time>2009-10-04T08:59:56Z</time></trkpt>
<trkpt lat="50.26714870" lon="3.10584970"><ele>35.225464</ele><time>2009-10-04T08:59:57Z</time></trkpt>
<trkpt lat="50.26755230" lon="3.10633850"><ele>33.302856</ele><time>2009-10-04T09:00:09Z</time></trkpt>
<trkpt lat="50.26771410" lon="3.10649860"><ele>32.822266</ele><time>2009-10-04T09:00:13Z</time></trkpt>
<trkpt lat="50.26777710" lon="3.10661410"><ele>32.822266</ele><time>2009-10-04T09:00:16Z</time></trkpt>
<trkpt lat="50.26780910" lon="3.10667270"><ele>32.822266</ele><time>2009-10-04T09:00:20Z</time></trkpt>
<trkpt lat="50.26781560" lon="3.10668470"><ele>32.822266</ele><time>2009-10-04T09:00:28Z</time></trkpt>
<trkpt lat="50.26781560" lon="3.10668470"><ele>32.341553</ele><time>2009-10-04T09:00:44Z</time></trkpt>
<trkpt lat="50.26781560" lon="3.10668470"><ele>28.976929</ele><time>2009-10-04T09:00:49Z</time></trkpt>
<trkpt lat="50.26769920" lon="3.10718610"><ele>28.015503</ele><time>2009-10-04T09:00:51Z</time></trkpt>
<trkpt lat="50.26766540" lon="3.10741420"><ele>26.573608</ele><time>2009-10-04T09:00:55Z</time></trkpt>
<trkpt lat="50.26751480" lon="3.10765850"><ele>27.054321</ele><time>2009-10-04T09:00:57Z</time></trkpt>
<trkpt lat="50.26746540" lon="3.10785320"><ele>27.054321</ele><time>2009-10-04T09:00:59Z</time></trkpt>
<trkpt lat="50.26736680" lon="3.10826180"><ele>26.092896</ele><time>2009-10-04T09:01:03Z</time></trkpt>
<trkpt lat="50.26724240" lon="3.10877710"><ele>28.015503</ele><time>2009-10-04T09:01:07Z</time></trkpt>
<trkpt lat="50.26716630" lon="3.10910660"><ele>28.015503</ele><time>2009-10-04T09:01:11Z</time></trkpt>
<trkpt lat="50.26698610" lon="3.10995020"><ele>25.612305</ele><time>2009-10-04T09:01:20Z</time></trkpt>
<trkpt lat="50.26693760" lon="3.11017720"><ele>26.092896</ele><time>2009-10-04T09:01:22Z</time></trkpt>
<trkpt lat="50.26689270" lon="3.11038780"><ele>26.092896</ele><time>2009-10-04T09:01:24Z</time></trkpt>
<trkpt lat="50.26682000" lon="3.11072750"><ele>27.054321</ele><time>2009-10-04T09:01:27Z</time></trkpt>
<trkpt lat="50.26662130" lon="3.11167690"><ele>27.054321</ele><time>2009-10-04T09:01:35Z</time></trkpt>
<trkpt lat="50.26647910" lon="3.11242100"><ele>27.534912</ele><time>2009-10-04T09:01:42Z</time></trkpt>
<trkpt lat="50.26638250" lon="3.11292630"><ele>27.534912</ele><time>2009-10-04T09:01:47Z</time></trkpt>
<trkpt lat="50.26631620" lon="3.11320950"><ele>27.534912</ele><time>2009-10-04T09:01:50Z</time></trkpt>
<trkpt lat="50.26619140" lon="3.11418150"><ele>27.534912</ele><time>2009-10-04T09:02:00Z</time></trkpt>
<trkpt lat="50.26616830" lon="3.11440980"><ele>27.534912</ele><time>2009-10-04T09:02:02Z</time></trkpt>
<trkpt lat="50.26609220" lon="3.11502280"><ele>28.496216</ele><time>2009-10-04T09:02:09Z</time></trkpt>
<trkpt lat="50.26601890" lon="3.11565520"><ele>28.015503</ele><time>2009-10-04T09:02:15Z</time></trkpt>
<trkpt lat="50.26598410" lon="3.11631400"><ele>28.015503</ele><time>2009-10-04T09:02:21Z</time></trkpt>
<trkpt lat="50.26593230" lon="3.11671610"><ele>27.534912</ele><time>2009-10-04T09:02:25Z</time></trkpt>
<trkpt lat="50.26583590" lon="3.11746660"><ele>28.496216</ele><time>2009-10-04T09:02:33Z</time></trkpt>
<trkpt lat="50.26576280" lon="3.11803510"><ele>27.534912</ele><time>2009-10-04T09:02:39Z</time></trkpt>
<trkpt lat="50.26567500" lon="3.11871720"><ele>27.054321</ele><time>2009-10-04T09:02:45Z</time></trkpt>
<trkpt lat="50.26559270" lon="3.11932540"><ele>28.496216</ele><time>2009-10-04T09:02:50Z</time></trkpt>
<trkpt lat="50.26549850" lon="3.11987260"><ele>27.534912</ele><time>2009-10-04T09:02:55Z</time></trkpt>
<trkpt lat="50.26546980" lon="3.12009480"><ele>27.534912</ele><time>2009-10-04T09:02:57Z</time></trkpt>
<trkpt lat="50.26544120" lon="3.12031680"><ele>27.534912</ele><time>2009-10-04T09:02:59Z</time></trkpt>
<trkpt lat="50.26543380" lon="3.12144900"><ele>27.534912</ele><time>2009-10-04T09:03:09Z</time></trkpt>
<trkpt lat="50.26543380" lon="3.12178330"><ele>27.534912</ele><time>2009-10-04T09:03:12Z</time></trkpt>
<trkpt lat="50.26543380" lon="3.12197970"><ele>28.015503</ele><time>2009-10-04T09:03:14Z</time></trkpt>
<trkpt lat="50.26539710" lon="3.12237310"><ele>29.93811</ele><time>2009-10-04T09:03:19Z</time></trkpt>
<trkpt lat="50.26532650" lon="3.12244180"><ele>31.380127</ele><time>2009-10-04T09:03:23Z</time></trkpt>
<trkpt lat="50.26515260" lon="3.12249970"><ele>32.822266</ele><time>2009-10-04T09:03:27Z</time></trkpt>
<trkpt lat="50.26513210" lon="3.12330940"><ele>32.822266</ele><time>2009-10-04T09:03:38Z</time></trkpt>
<trkpt lat="50.26510720" lon="3.12409030"><ele>32.822266</ele><time>2009-10-04T09:03:47Z</time></trkpt>
<trkpt lat="50.26506630" lon="3.12539030"><ele>32.822266</ele><time>2009-10-04T09:04:01Z</time></trkpt>
<trkpt lat="50.26505780" lon="3.12572380"><ele>33.302856</ele><time>2009-10-04T09:04:05Z</time></trkpt>
<trkpt lat="50.26504830" lon="3.12609520"><ele>33.302856</ele><time>2009-10-04T09:04:09Z</time></trkpt>
<trkpt lat="50.26494860" lon="3.12687600"><ele>31.860718</ele><time>2009-10-04T09:04:17Z</time></trkpt>
<trkpt lat="50.26452070" lon="3.12820620"><ele>31.860718</ele><time>2009-10-04T09:04:31Z</time></trkpt>
<trkpt lat="50.26405660" lon="3.12966270"><ele>33.302856</ele><time>2009-10-04T09:04:46Z</time></trkpt>
<trkpt lat="50.26369920" lon="3.13119560"><ele>32.341553</ele><time>2009-10-04T09:05:00Z</time></trkpt>
<trkpt lat="50.26338300" lon="3.13315520"><ele>32.822266</ele><time>2009-10-04T09:05:16Z</time></trkpt>
<trkpt lat="50.26324690" lon="3.13378340"><ele>30.899536</ele><time>2009-10-04T09:05:21Z</time></trkpt>
<trkpt lat="50.26309390" lon="3.13426070"><ele>29.45752</ele><time>2009-10-04T09:05:25Z</time></trkpt>
<trkpt lat="50.26237790" lon="3.13584080"><ele>29.45752</ele><time>2009-10-04T09:05:39Z</time></trkpt>
<trkpt lat="50.26190010" lon="3.13685810"><ele>28.015503</ele><time>2009-10-04T09:05:48Z</time></trkpt>
<trkpt lat="50.26151220" lon="3.13721650"><ele>28.976929</ele><time>2009-10-04T09:05:54Z</time></trkpt>
<trkpt lat="50.26074550" lon="3.13792950"><ele>31.380127</ele><time>2009-10-04T09:06:08Z</time></trkpt>
<trkpt lat="50.26028700" lon="3.13856100"><ele>34.744873</ele><time>2009-10-04T09:06:19Z</time></trkpt>
<trkpt lat="50.26024500" lon="3.13861930"><ele>35.225464</ele><time>2009-10-04T09:06:20Z</time></trkpt>
<trkpt lat="50.26017720" lon="3.13871340"><ele>36.186768</ele><time>2009-10-04T09:06:22Z</time></trkpt>
<trkpt lat="50.26000520" lon="3.13893540"><ele>38.109375</ele><time>2009-10-04T09:06:28Z</time></trkpt>
<trkpt lat="50.25996630" lon="3.13897440"><ele>39.55127</ele><time>2009-10-04T09:06:31Z</time></trkpt>
<trkpt lat="50.26007020" lon="3.13929320"><ele>38.590088</ele><time>2009-10-04T09:06:35Z</time></trkpt>
<trkpt lat="50.26023630" lon="3.13956700"><ele>39.070679</ele><time>2009-10-04T09:06:39Z</time></trkpt>
<trkpt lat="50.26063670" lon="3.14018800"><ele>36.66748</ele><time>2009-10-04T09:06:47Z</time></trkpt>
<trkpt lat="50.26077300" lon="3.14045830"><ele>36.66748</ele><time>2009-10-04T09:06:50Z</time></trkpt>
<trkpt lat="50.26103490" lon="3.14040860"><ele>36.186768</ele><time>2009-10-04T09:06:55Z</time></trkpt>
<trkpt lat="50.26146400" lon="3.14035180"><ele>33.783447</ele><time>2009-10-04T09:07:00Z</time></trkpt>
<trkpt lat="50.26218920" lon="3.14043200"><ele>33.302856</ele><time>2009-10-04T09:07:09Z</time></trkpt>
<trkpt lat="50.26300870" lon="3.14052080"><ele>33.783447</ele><time>2009-10-04T09:07:20Z</time></trkpt>
<trkpt lat="50.26331600" lon="3.14041500"><ele>31.380127</ele><time>2009-10-04T09:07:24Z</time></trkpt>
<trkpt lat="50.26357190" lon="3.14016930"><ele>29.45752</ele><time>2009-10-04T09:07:28Z</time></trkpt>
<trkpt lat="50.26377350" lon="3.13972570"><ele>28.015503</ele><time>2009-10-04T09:07:32Z</time></trkpt>
<trkpt lat="50.26429230" lon="3.13856220"><ele>26.092896</ele><time>2009-10-04T09:07:42Z</time></trkpt>
<trkpt lat="50.26444200" lon="3.13830010"><ele>26.092896</ele><time>2009-10-04T09:07:45Z</time></trkpt>
<trkpt lat="50.26444670" lon="3.13829180"><ele>28.976929</ele><time>2009-10-04T09:07:48Z</time></trkpt>
<trkpt lat="50.26435070" lon="3.13807870"><ele>27.534912</ele><time>2009-10-04T09:07:51Z</time></trkpt>
<trkpt lat="50.26422370" lon="3.13811770"><ele>27.534912</ele><time>2009-10-04T09:07:53Z</time></trkpt>
<trkpt lat="50.26351510" lon="3.13832650"><ele>27.054321</ele><time>2009-10-04T09:08:03Z</time></trkpt>
<trkpt lat="50.26326460" lon="3.13847670"><ele>28.976929</ele><time>2009-10-04T09:08:08Z</time></trkpt>
<trkpt lat="50.26316400" lon="3.13899710"><ele>28.976929</ele><time>2009-10-04T09:08:14Z</time></trkpt>
<trkpt lat="50.26302040" lon="3.13973910"><ele>29.45752</ele><time>2009-10-04T09:08:21Z</time></trkpt>
<trkpt lat="50.26289060" lon="3.14040950"><ele>26.573608</ele><time>2009-10-04T09:08:27Z</time></trkpt>
<trkpt lat="50.26277390" lon="3.14101270"><ele>27.054321</ele><time>2009-10-04T09:08:32Z</time></trkpt>
<trkpt lat="50.26251120" lon="3.14250590"><ele>27.534912</ele><time>2009-10-04T09:08:44Z</time></trkpt>
<trkpt lat="50.26231400" lon="3.14358950"><ele>28.015503</ele><time>2009-10-04T09:08:53Z</time></trkpt>
<trkpt lat="50.26199500" lon="3.14529740"><ele>26.573608</ele><time>2009-10-04T09:09:07Z</time></trkpt>
<trkpt lat="50.26194940" lon="3.14554160"><ele>25.612305</ele><time>2009-10-04T09:09:09Z</time></trkpt>
<trkpt lat="50.26167940" lon="3.14698810"><ele>26.092896</ele><time>2009-10-04T09:09:21Z</time></trkpt>
<trkpt lat="50.26154170" lon="3.14772560"><ele>25.612305</ele><time>2009-10-04T09:09:27Z</time></trkpt>
<trkpt lat="50.26121270" lon="3.14946250"><ele>27.534912</ele><time>2009-10-04T09:09:41Z</time></trkpt>
<trkpt lat="50.26092120" lon="3.15122080"><ele>27.054321</ele><time>2009-10-04T09:09:55Z</time></trkpt>
<trkpt lat="50.26060570" lon="3.15299240"><ele>27.054321</ele><time>2009-10-04T09:10:09Z</time></trkpt>
<trkpt lat="50.26044550" lon="3.15389220"><ele>28.496216</ele><time>2009-10-04T09:10:17Z</time></trkpt>
<trkpt lat="50.26041410" lon="3.15406830"><ele>28.496216</ele><time>2009-10-04T09:10:19Z</time></trkpt>
<trkpt lat="50.26037190" lon="3.15430590"><ele>28.976929</ele><time>2009-10-04T09:10:22Z</time></trkpt>
<trkpt lat="50.26015520" lon="3.15552510"><ele>26.573608</ele><time>2009-10-04T09:10:34Z</time></trkpt>
<trkpt lat="50.25986830" lon="3.15713880"><ele>27.534912</ele><time>2009-10-04T09:10:47Z</time></trkpt>
<trkpt lat="50.25975370" lon="3.15778320"><ele>28.976929</ele><time>2009-10-04T09:10:53Z</time></trkpt>
<trkpt lat="50.25969780" lon="3.15809780"><ele>28.015503</ele><time>2009-10-04T09:10:56Z</time></trkpt>
<trkpt lat="50.25957580" lon="3.15878390"><ele>28.976929</ele><time>2009-10-04T09:11:02Z</time></trkpt>
<trkpt lat="50.25932310" lon="3.16023560"><ele>27.534912</ele><time>2009-10-04T09:11:16Z</time></trkpt>
<trkpt lat="50.25947190" lon="3.16090470"><ele>28.976929</ele><time>2009-10-04T09:11:23Z</time></trkpt>
<trkpt lat="50.25961790" lon="3.16157790"><ele>29.93811</ele><time>2009-10-04T09:11:35Z</time></trkpt>
<trkpt lat="50.25974750" lon="3.16235860"><ele>30.418823</ele><time>2009-10-04T09:11:49Z</time></trkpt>
<trkpt lat="50.25974750" lon="3.16241030"><ele>28.976929</ele><time>2009-10-04T09:11:53Z</time></trkpt>
<trkpt lat="50.26023290" lon="3.16389440"><ele>28.496216</ele><time>2009-10-04T09:12:05Z</time></trkpt>
<trkpt lat="50.26040190" lon="3.16430600"><ele>28.976929</ele><time>2009-10-04T09:12:09Z</time></trkpt>
<trkpt lat="50.26076150" lon="3.16467250"><ele>29.45752</ele><time>2009-10-04T09:12:15Z</time></trkpt>
<trkpt lat="50.26121590" lon="3.16488670"><ele>30.899536</ele><time>2009-10-04T09:12:22Z</time></trkpt>
<trkpt lat="50.26172070" lon="3.16512490"><ele>33.783447</ele><time>2009-10-04T09:12:33Z</time></trkpt>
<trkpt lat="50.26211930" lon="3.16531780"><ele>32.822266</ele><time>2009-10-04T09:12:42Z</time></trkpt>
<trkpt lat="50.26223250" lon="3.16534040"><ele>33.783447</ele><time>2009-10-04T09:12:44Z</time></trkpt>
<trkpt lat="50.26291780" lon="3.16550950"><ele>35.706055</ele><time>2009-10-04T09:12:55Z</time></trkpt>
<trkpt lat="50.26373120" lon="3.16609960"><ele>37.628662</ele><time>2009-10-04T09:13:09Z</time></trkpt>
<trkpt lat="50.26382870" lon="3.16617320"><ele>38.590088</ele><time>2009-10-04T09:13:11Z</time></trkpt>
<trkpt lat="50.26400230" lon="3.16595590"><ele>38.590088</ele><time>2009-10-04T09:13:18Z</time></trkpt>
<trkpt lat="50.26400450" lon="3.16586510"><ele>38.590088</ele><time>2009-10-04T09:13:19Z</time></trkpt>
<trkpt lat="50.26401180" lon="3.16529360"><ele>38.109375</ele><time>2009-10-04T09:13:25Z</time></trkpt>
<trkpt lat="50.26397810" lon="3.16483950"><ele>40.032104</ele><time>2009-10-04T09:13:30Z</time></trkpt>
<trkpt lat="50.26411620" lon="3.16461150"><ele>41.954712</ele><time>2009-10-04T09:13:36Z</time></trkpt>
<trkpt lat="50.26470360" lon="3.16474990"><ele>42.435425</ele><time>2009-10-04T09:13:46Z</time></trkpt>
<trkpt lat="50.26490890" lon="3.16481960"><ele>43.877319</ele><time>2009-10-04T09:13:49Z</time></trkpt>
<trkpt lat="50.26599950" lon="3.16521740"><ele>45.799927</ele><time>2009-10-04T09:14:06Z</time></trkpt>
<trkpt lat="50.26669130" lon="3.16553920"><ele>46.28064</ele><time>2009-10-04T09:14:18Z</time></trkpt>
<trkpt lat="50.26750570" lon="3.16580590"><ele>44.358032</ele><time>2009-10-04T09:14:30Z</time></trkpt>
<trkpt lat="50.26847730" lon="3.16589940"><ele>42.916016</ele><time>2009-10-04T09:14:44Z</time></trkpt>
<trkpt lat="50.26936810" lon="3.16601140"><ele>40.993408</ele><time>2009-10-04T09:14:56Z</time></trkpt>
<trkpt lat="50.26997250" lon="3.16610290"><ele>40.512817</ele><time>2009-10-04T09:15:04Z</time></trkpt>
<trkpt lat="50.27133620" lon="3.16656290"><ele>38.109375</ele><time>2009-10-04T09:15:22Z</time></trkpt>
<trkpt lat="50.27270150" lon="3.16691450"><ele>36.186768</ele><time>2009-10-04T09:15:38Z</time></trkpt>
<trkpt lat="50.27354740" lon="3.16686000"><ele>34.26416</ele><time>2009-10-04T09:15:49Z</time></trkpt>
<trkpt lat="50.27432350" lon="3.16654140"><ele>34.26416</ele><time>2009-10-04T09:16:01Z</time></trkpt>
<trkpt lat="50.27468420" lon="3.16639950"><ele>34.744873</ele><time>2009-10-04T09:16:10Z</time></trkpt>
<trkpt lat="50.27507850" lon="3.16614070"><ele>34.26416</ele><time>2009-10-04T09:16:21Z</time></trkpt>
<trkpt lat="50.27551960" lon="3.16587730"><ele>33.783447</ele><time>2009-10-04T09:16:33Z</time></trkpt>
<trkpt lat="50.27589440" lon="3.16559740"><ele>34.26416</ele><time>2009-10-04T09:16:45Z</time></trkpt>
<trkpt lat="50.27638160" lon="3.16526100"><ele>33.783447</ele><time>2009-10-04T09:16:56Z</time></trkpt>
<trkpt lat="50.27654890" lon="3.16516200"><ele>34.744873</ele><time>2009-10-04T09:17:00Z</time></trkpt>
<trkpt lat="50.27664300" lon="3.16511020"><ele>35.225464</ele><time>2009-10-04T09:17:02Z</time></trkpt>
<trkpt lat="50.27738450" lon="3.16467730"><ele>33.302856</ele><time>2009-10-04T09:17:17Z</time></trkpt>
<trkpt lat="50.27829110" lon="3.16413480"><ele>32.822266</ele><time>2009-10-04T09:17:33Z</time></trkpt>
<trkpt lat="50.27905870" lon="3.16367520"><ele>34.26416</ele><time>2009-10-04T09:17:47Z</time></trkpt>
<trkpt lat="50.27956680" lon="3.16337100"><ele>36.186768</ele><time>2009-10-04T09:17:57Z</time></trkpt>
<trkpt lat="50.28002020" lon="3.16309950"><ele>38.109375</ele><time>2009-10-04T09:18:07Z</time></trkpt>
<trkpt lat="50.28038950" lon="3.16287860"><ele>39.070679</ele><time>2009-10-04T09:18:16Z</time></trkpt>
<trkpt lat="50.28047810" lon="3.16282570"><ele>39.55127</ele><time>2009-10-04T09:18:18Z</time></trkpt>
<trkpt lat="50.28077530" lon="3.16264780"><ele>40.512817</ele><time>2009-10-04T09:18:25Z</time></trkpt>
<trkpt lat="50.28109240" lon="3.16245810"><ele>40.993408</ele><time>2009-10-04T09:18:32Z</time></trkpt>
<trkpt lat="50.28118660" lon="3.16240190"><ele>41.473999</ele><time>2009-10-04T09:18:34Z</time></trkpt>
<trkpt lat="50.28189950" lon="3.16197550"><ele>43.877319</ele><time>2009-10-04T09:18:50Z</time></trkpt>
<trkpt lat="50.28247530" lon="3.16163110"><ele>44.838623</ele><time>2009-10-04T09:19:02Z</time></trkpt>
<trkpt lat="50.28323890" lon="3.16117450"><ele>48.203369</ele><time>2009-10-04T09:19:16Z</time></trkpt>
<trkpt lat="50.28401190" lon="3.16071220"><ele>47.241821</ele><time>2009-10-04T09:19:30Z</time></trkpt>
<trkpt lat="50.28503390" lon="3.16010090"><ele>48.203369</ele><time>2009-10-04T09:19:46Z</time></trkpt>
<trkpt lat="50.28605950" lon="3.15948750"><ele>47.722534</ele><time>2009-10-04T09:20:02Z</time></trkpt>
<trkpt lat="50.28662600" lon="3.15914880"><ele>48.68396</ele><time>2009-10-04T09:20:11Z</time></trkpt>
<trkpt lat="50.28694070" lon="3.15921380"><ele>49.164551</ele><time>2009-10-04T09:20:16Z</time></trkpt>
<trkpt lat="50.28757550" lon="3.15987570"><ele>51.567871</ele><time>2009-10-04T09:20:27Z</time></trkpt>
<trkpt lat="50.28768960" lon="3.15998960"><ele>53.009766</ele><time>2009-10-04T09:20:29Z</time></trkpt>
<trkpt lat="50.28798870" lon="3.16031300"><ele>55.893799</ele><time>2009-10-04T09:20:35Z</time></trkpt>
<trkpt lat="50.28823030" lon="3.16062040"><ele>59.739136</ele><time>2009-10-04T09:20:41Z</time></trkpt>
<trkpt lat="50.28826370" lon="3.16066310"><ele>59.739136</ele><time>2009-10-04T09:20:42Z</time></trkpt>
<trkpt lat="50.28846690" lon="3.16094170"><ele>61.661743</ele><time>2009-10-04T09:20:48Z</time></trkpt>
<trkpt lat="50.28886070" lon="3.16152600"><ele>64.065063</ele><time>2009-10-04T09:21:00Z</time></trkpt>
<trkpt lat="50.28896040" lon="3.16167400"><ele>64.065063</ele><time>2009-10-04T09:21:03Z</time></trkpt>
<trkpt lat="50.28911740" lon="3.16168110"><ele>62.622925</ele><time>2009-10-04T09:21:08Z</time></trkpt>
<trkpt lat="50.28927110" lon="3.16141320"><ele>62.142334</ele><time>2009-10-04T09:21:13Z</time></trkpt>
<trkpt lat="50.28950890" lon="3.16079660"><ele>59.739136</ele><time>2009-10-04T09:21:21Z</time></trkpt>
<trkpt lat="50.28988800" lon="3.15986890"><ele>56.374512</ele><time>2009-10-04T09:21:32Z</time></trkpt>
<trkpt lat="50.29033460" lon="3.15879850"><ele>57.335815</ele><time>2009-10-04T09:21:46Z</time></trkpt>
<trkpt lat="50.29035360" lon="3.15876260"><ele>56.374512</ele><time>2009-10-04T09:21:47Z</time></trkpt>
<trkpt lat="50.29040650" lon="3.15866260"><ele>55.413086</ele><time>2009-10-04T09:21:49Z</time></trkpt>
<trkpt lat="50.29075460" lon="3.15844870"><ele>57.335815</ele><time>2009-10-04T09:21:55Z</time></trkpt>
<trkpt lat="50.29087710" lon="3.15832280"><ele>58.297119</ele><time>2009-10-04T09:22:03Z</time></trkpt>
<trkpt lat="50.29087710" lon="3.15832280"><ele>58.297119</ele><time>2009-10-04T09:22:07Z</time></trkpt>
</trkseg></trk></gpx>